<?xml version="1.0" encoding="UTF-8" standalone="no" ?>
<gpx xmlns="http://www.topografix.com/GPX/1/1" xmlns:xsi="http://www.w3.org/2001/XMLSchema-instance" xsi:schemaLocation="http://www.topografix.com/GPX/1/1 http://www.topografix.com/GPX/1/1/gpx.xsd" version="1.1" creator="VisuGPX - https://www.visugpx.com">
  <metadata>
    <name>CHENOVE Marche du mardi 28 aout 2012</name>
    <desc><![CDATA[Marche libre avec Fransesco]]></desc>
  </metadata>
  <trk>
    <name><![CDATA[CHENOVE Marche du mardi 28 aout 2012_1]]></name>
    <trkseg>
      <trkpt lat="47.29268" lon="5.00577">
        <ele>272.745</ele>
        <time>2012-08-28T07:32:55Z</time>
      </trkpt>
      <trkpt lat="47.29273" lon="5.0056">
        <ele>272.077</ele>
        <time>2012-08-28T07:33:06Z</time>
      </trkpt>
      <trkpt lat="47.29275" lon="5.00545">
        <ele>273.355</ele>
        <time>2012-08-28T07:33:17Z</time>
      </trkpt>
      <trkpt lat="47.29272" lon="5.0053">
        <ele>279.046</ele>
        <time>2012-08-28T07:33:28Z</time>
      </trkpt>
      <trkpt lat="47.29267" lon="5.00518">
        <ele>282.103</ele>
        <time>2012-08-28T07:33:39Z</time>
      </trkpt>
      <trkpt lat="47.29272" lon="5.00502">
        <ele>292.334</ele>
        <time>2012-08-28T07:33:50Z</time>
      </trkpt>
      <trkpt lat="47.2928" lon="5.00488">
        <ele>301.877</ele>
        <time>2012-08-28T07:34:01Z</time>
      </trkpt>
      <trkpt lat="47.29285" lon="5.00473">
        <ele>303.275</ele>
        <time>2012-08-28T07:34:12Z</time>
      </trkpt>
      <trkpt lat="47.29288" lon="5.0045">
        <ele>307.209</ele>
        <time>2012-08-28T07:34:23Z</time>
      </trkpt>
      <trkpt lat="47.29293" lon="5.00428">
        <ele>313.086</ele>
        <time>2012-08-28T07:34:34Z</time>
      </trkpt>
      <trkpt lat="47.29293" lon="5.00418">
        <ele>317.849</ele>
        <time>2012-08-28T07:34:45Z</time>
      </trkpt>
      <trkpt lat="47.29307" lon="5.004">
        <ele>306.576</ele>
        <time>2012-08-28T07:34:56Z</time>
      </trkpt>
      <trkpt lat="47.29318" lon="5.004">
        <ele>302.067</ele>
        <time>2012-08-28T07:35:07Z</time>
      </trkpt>
      <trkpt lat="47.29327" lon="5.00392">
        <ele>297.164</ele>
        <time>2012-08-28T07:35:18Z</time>
      </trkpt>
      <trkpt lat="47.29337" lon="5.00375">
        <ele>299.067</ele>
        <time>2012-08-28T07:35:29Z</time>
      </trkpt>
      <trkpt lat="47.29347" lon="5.00365">
        <ele>298.95</ele>
        <time>2012-08-28T07:35:40Z</time>
      </trkpt>
      <trkpt lat="47.2936" lon="5.00367">
        <ele>293.386</ele>
        <time>2012-08-28T07:35:51Z</time>
      </trkpt>
      <trkpt lat="47.29373" lon="5.00372">
        <ele>289.249</ele>
        <time>2012-08-28T07:36:02Z</time>
      </trkpt>
      <trkpt lat="47.29385" lon="5.0037">
        <ele>286.489</ele>
        <time>2012-08-28T07:36:13Z</time>
      </trkpt>
      <trkpt lat="47.29397" lon="5.00367">
        <ele>282.99</ele>
        <time>2012-08-28T07:36:24Z</time>
      </trkpt>
      <trkpt lat="47.2941" lon="5.00367">
        <ele>280.132</ele>
        <time>2012-08-28T07:36:35Z</time>
      </trkpt>
      <trkpt lat="47.2942" lon="5.00357">
        <ele>282.711</ele>
        <time>2012-08-28T07:36:46Z</time>
      </trkpt>
      <trkpt lat="47.29433" lon="5.00355">
        <ele>282.01</ele>
        <time>2012-08-28T07:36:57Z</time>
      </trkpt>
      <trkpt lat="47.29443" lon="5.0036">
        <ele>279.654</ele>
        <time>2012-08-28T07:37:08Z</time>
      </trkpt>
      <trkpt lat="47.29458" lon="5.00357">
        <ele>278.118</ele>
        <time>2012-08-28T07:37:19Z</time>
      </trkpt>
      <trkpt lat="47.29472" lon="5.0036">
        <ele>278.268</ele>
        <time>2012-08-28T07:37:30Z</time>
      </trkpt>
      <trkpt lat="47.29483" lon="5.00345">
        <ele>277.341</ele>
        <time>2012-08-28T07:37:41Z</time>
      </trkpt>
      <trkpt lat="47.2949" lon="5.00328">
        <ele>279.217</ele>
        <time>2012-08-28T07:37:52Z</time>
      </trkpt>
      <trkpt lat="47.29497" lon="5.00308">
        <ele>280.615</ele>
        <time>2012-08-28T07:38:03Z</time>
      </trkpt>
      <trkpt lat="47.29505" lon="5.00297">
        <ele>280.939</ele>
        <time>2012-08-28T07:38:14Z</time>
      </trkpt>
      <trkpt lat="47.2951" lon="5.00278">
        <ele>283.143</ele>
        <time>2012-08-28T07:38:25Z</time>
      </trkpt>
      <trkpt lat="47.29513" lon="5.00262">
        <ele>284.88</ele>
        <time>2012-08-28T07:38:36Z</time>
      </trkpt>
      <trkpt lat="47.29517" lon="5.00247">
        <ele>291.029</ele>
        <time>2012-08-28T07:38:47Z</time>
      </trkpt>
      <trkpt lat="47.29522" lon="5.00232">
        <ele>294.448</ele>
        <time>2012-08-28T07:38:58Z</time>
      </trkpt>
      <trkpt lat="47.29535" lon="5.00218">
        <ele>294.084</ele>
        <time>2012-08-28T07:39:09Z</time>
      </trkpt>
      <trkpt lat="47.2955" lon="5.00208">
        <ele>287.241</ele>
        <time>2012-08-28T07:39:20Z</time>
      </trkpt>
      <trkpt lat="47.29563" lon="5.00192">
        <ele>283.056</ele>
        <time>2012-08-28T07:39:31Z</time>
      </trkpt>
      <trkpt lat="47.29572" lon="5.00178">
        <ele>282.606</ele>
        <time>2012-08-28T07:39:42Z</time>
      </trkpt>
      <trkpt lat="47.2958" lon="5.00158">
        <ele>281.88</ele>
        <time>2012-08-28T07:39:53Z</time>
      </trkpt>
      <trkpt lat="47.29588" lon="5.00145">
        <ele>283.633</ele>
        <time>2012-08-28T07:40:04Z</time>
      </trkpt>
      <trkpt lat="47.29597" lon="5.00128">
        <ele>283.623</ele>
        <time>2012-08-28T07:40:15Z</time>
      </trkpt>
      <trkpt lat="47.29603" lon="5.00108">
        <ele>281.319</ele>
        <time>2012-08-28T07:40:26Z</time>
      </trkpt>
      <trkpt lat="47.29607" lon="5.00087">
        <ele>278.882</ele>
        <time>2012-08-28T07:40:37Z</time>
      </trkpt>
      <trkpt lat="47.29613" lon="5.00068">
        <ele>281.699</ele>
        <time>2012-08-28T07:40:48Z</time>
      </trkpt>
      <trkpt lat="47.29623" lon="5.00058">
        <ele>278.938</ele>
        <time>2012-08-28T07:40:59Z</time>
      </trkpt>
      <trkpt lat="47.29638" lon="5.00063">
        <ele>281.266</ele>
        <time>2012-08-28T07:41:10Z</time>
      </trkpt>
      <trkpt lat="47.29653" lon="5.00067">
        <ele>278.687</ele>
        <time>2012-08-28T07:41:21Z</time>
      </trkpt>
      <trkpt lat="47.29668" lon="5.00073">
        <ele>274.128</ele>
        <time>2012-08-28T07:41:32Z</time>
      </trkpt>
      <trkpt lat="47.29683" lon="5.00077">
        <ele>274.747</ele>
        <time>2012-08-28T07:41:43Z</time>
      </trkpt>
      <trkpt lat="47.29698" lon="5.0008">
        <ele>274.586</ele>
        <time>2012-08-28T07:41:54Z</time>
      </trkpt>
      <trkpt lat="47.29712" lon="5.00083">
        <ele>274.404</ele>
        <time>2012-08-28T07:42:05Z</time>
      </trkpt>
      <trkpt lat="47.29725" lon="5.00087">
        <ele>271.121</ele>
        <time>2012-08-28T07:42:16Z</time>
      </trkpt>
      <trkpt lat="47.29738" lon="5.00088">
        <ele>269.491</ele>
        <time>2012-08-28T07:42:27Z</time>
      </trkpt>
      <trkpt lat="47.29757" lon="5.0009">
        <ele>268.881</ele>
        <time>2012-08-28T07:42:38Z</time>
      </trkpt>
      <trkpt lat="47.29772" lon="5.00095">
        <ele>269.64</ele>
        <time>2012-08-28T07:42:49Z</time>
      </trkpt>
      <trkpt lat="47.29787" lon="5.001">
        <ele>269.62</ele>
        <time>2012-08-28T07:43:00Z</time>
      </trkpt>
      <trkpt lat="47.298" lon="5.00105">
        <ele>270.185</ele>
        <time>2012-08-28T07:43:11Z</time>
      </trkpt>
      <trkpt lat="47.29815" lon="5.00107">
        <ele>273.382</ele>
        <time>2012-08-28T07:43:22Z</time>
      </trkpt>
      <trkpt lat="47.29827" lon="5.0011">
        <ele>273.082</ele>
        <time>2012-08-28T07:43:33Z</time>
      </trkpt>
      <trkpt lat="47.29842" lon="5.00113">
        <ele>273.283</ele>
        <time>2012-08-28T07:43:44Z</time>
      </trkpt>
      <trkpt lat="47.29855" lon="5.00118">
        <ele>271.472</ele>
        <time>2012-08-28T07:43:55Z</time>
      </trkpt>
      <trkpt lat="47.29868" lon="5.00125">
        <ele>270.131</ele>
        <time>2012-08-28T07:44:06Z</time>
      </trkpt>
      <trkpt lat="47.29883" lon="5.00128">
        <ele>272.042</ele>
        <time>2012-08-28T07:44:17Z</time>
      </trkpt>
      <trkpt lat="47.29895" lon="5.00127">
        <ele>269.625</ele>
        <time>2012-08-28T07:44:28Z</time>
      </trkpt>
      <trkpt lat="47.2991" lon="5.00122">
        <ele>268.778</ele>
        <time>2012-08-28T07:44:39Z</time>
      </trkpt>
      <trkpt lat="47.29923" lon="5.0012">
        <ele>269.82</ele>
        <time>2012-08-28T07:44:50Z</time>
      </trkpt>
      <trkpt lat="47.29938" lon="5.00118">
        <ele>269.798</ele>
        <time>2012-08-28T07:45:01Z</time>
      </trkpt>
      <trkpt lat="47.29952" lon="5.00118">
        <ele>271.544</ele>
        <time>2012-08-28T07:45:12Z</time>
      </trkpt>
      <trkpt lat="47.29965" lon="5.00118">
        <ele>274.348</ele>
        <time>2012-08-28T07:45:23Z</time>
      </trkpt>
      <trkpt lat="47.2998" lon="5.0012">
        <ele>277.314</ele>
        <time>2012-08-28T07:45:34Z</time>
      </trkpt>
      <trkpt lat="47.29988" lon="5.00118">
        <ele>280.726</ele>
        <time>2012-08-28T07:45:45Z</time>
      </trkpt>
      <trkpt lat="47.30002" lon="5.0012">
        <ele>280.922</ele>
        <time>2012-08-28T07:45:56Z</time>
      </trkpt>
      <trkpt lat="47.30005" lon="5.0012">
        <ele>281.886</ele>
        <time>2012-08-28T07:46:07Z</time>
      </trkpt>
      <trkpt lat="47.30008" lon="5.00122">
        <ele>282.364</ele>
        <time>2012-08-28T07:46:18Z</time>
      </trkpt>
      <trkpt lat="47.30015" lon="5.00123">
        <ele>283.724</ele>
        <time>2012-08-28T07:46:29Z</time>
      </trkpt>
      <trkpt lat="47.3003" lon="5.0013">
        <ele>282.226</ele>
        <time>2012-08-28T07:46:40Z</time>
      </trkpt>
      <trkpt lat="47.30043" lon="5.00137">
        <ele>281.38</ele>
        <time>2012-08-28T07:46:51Z</time>
      </trkpt>
      <trkpt lat="47.30047" lon="5.00138">
        <ele>282.784</ele>
        <time>2012-08-28T07:47:02Z</time>
      </trkpt>
      <trkpt lat="47.30058" lon="5.00147">
        <ele>283.449</ele>
        <time>2012-08-28T07:47:13Z</time>
      </trkpt>
      <trkpt lat="47.30062" lon="5.0015">
        <ele>284.571</ele>
        <time>2012-08-28T07:47:24Z</time>
      </trkpt>
      <trkpt lat="47.30065" lon="5.00155">
        <ele>284.328</ele>
        <time>2012-08-28T07:47:35Z</time>
      </trkpt>
      <trkpt lat="47.30073" lon="5.00165">
        <ele>285.634</ele>
        <time>2012-08-28T07:47:46Z</time>
      </trkpt>
      <trkpt lat="47.30073" lon="5.00165">
        <ele>285.634</ele>
        <time>2012-08-28T07:47:57Z</time>
      </trkpt>
      <trkpt lat="47.30077" lon="5.00167">
        <ele>286.116</ele>
        <time>2012-08-28T07:48:08Z</time>
      </trkpt>
      <trkpt lat="47.30083" lon="5.00173">
        <ele>286.973</ele>
        <time>2012-08-28T07:48:19Z</time>
      </trkpt>
      <trkpt lat="47.30095" lon="5.00182">
        <ele>286.419</ele>
        <time>2012-08-28T07:48:30Z</time>
      </trkpt>
      <trkpt lat="47.3011" lon="5.00195">
        <ele>283.884</ele>
        <time>2012-08-28T07:48:41Z</time>
      </trkpt>
      <trkpt lat="47.30125" lon="5.00205">
        <ele>286.262</ele>
        <time>2012-08-28T07:48:52Z</time>
      </trkpt>
      <trkpt lat="47.30135" lon="5.00213">
        <ele>288.845</ele>
        <time>2012-08-28T07:49:03Z</time>
      </trkpt>
      <trkpt lat="47.30143" lon="5.00218">
        <ele>289.621</ele>
        <time>2012-08-28T07:49:14Z</time>
      </trkpt>
      <trkpt lat="47.30155" lon="5.00232">
        <ele>292.525</ele>
        <time>2012-08-28T07:49:25Z</time>
      </trkpt>
      <trkpt lat="47.30168" lon="5.0024">
        <ele>295.066</ele>
        <time>2012-08-28T07:49:36Z</time>
      </trkpt>
      <trkpt lat="47.30188" lon="5.00248">
        <ele>296.235</ele>
        <time>2012-08-28T07:49:47Z</time>
      </trkpt>
      <trkpt lat="47.30205" lon="5.00248">
        <ele>293.093</ele>
        <time>2012-08-28T07:49:58Z</time>
      </trkpt>
      <trkpt lat="47.30212" lon="5.00253">
        <ele>296.133</ele>
        <time>2012-08-28T07:50:09Z</time>
      </trkpt>
      <trkpt lat="47.30222" lon="5.00255">
        <ele>296.647</ele>
        <time>2012-08-28T07:50:20Z</time>
      </trkpt>
      <trkpt lat="47.30232" lon="5.00258">
        <ele>297.607</ele>
        <time>2012-08-28T07:50:31Z</time>
      </trkpt>
      <trkpt lat="47.30245" lon="5.00262">
        <ele>299.764</ele>
        <time>2012-08-28T07:50:42Z</time>
      </trkpt>
      <trkpt lat="47.30265" lon="5.00267">
        <ele>299.396</ele>
        <time>2012-08-28T07:50:53Z</time>
      </trkpt>
      <trkpt lat="47.30277" lon="5.00273">
        <ele>299.83</ele>
        <time>2012-08-28T07:51:04Z</time>
      </trkpt>
      <trkpt lat="47.30293" lon="5.00272">
        <ele>297.444</ele>
        <time>2012-08-28T07:51:15Z</time>
      </trkpt>
      <trkpt lat="47.30312" lon="5.00265">
        <ele>296.965</ele>
        <time>2012-08-28T07:51:26Z</time>
      </trkpt>
      <trkpt lat="47.3032" lon="5.00262">
        <ele>294.925</ele>
        <time>2012-08-28T07:51:37Z</time>
      </trkpt>
      <trkpt lat="47.30337" lon="5.00262">
        <ele>296.048</ele>
        <time>2012-08-28T07:51:48Z</time>
      </trkpt>
      <trkpt lat="47.30352" lon="5.00247">
        <ele>296.649</ele>
        <time>2012-08-28T07:51:59Z</time>
      </trkpt>
      <trkpt lat="47.30365" lon="5.00242">
        <ele>297.698</ele>
        <time>2012-08-28T07:52:10Z</time>
      </trkpt>
      <trkpt lat="47.30382" lon="5.00242">
        <ele>300.145</ele>
        <time>2012-08-28T07:52:21Z</time>
      </trkpt>
      <trkpt lat="47.304" lon="5.0024">
        <ele>303.238</ele>
        <time>2012-08-28T07:52:32Z</time>
      </trkpt>
      <trkpt lat="47.30417" lon="5.00237">
        <ele>305.18</ele>
        <time>2012-08-28T07:52:43Z</time>
      </trkpt>
      <trkpt lat="47.30432" lon="5.00233">
        <ele>305.938</ele>
        <time>2012-08-28T07:52:54Z</time>
      </trkpt>
      <trkpt lat="47.30445" lon="5.00228">
        <ele>309.879</ele>
        <time>2012-08-28T07:53:05Z</time>
      </trkpt>
      <trkpt lat="47.30458" lon="5.00225">
        <ele>308.153</ele>
        <time>2012-08-28T07:53:16Z</time>
      </trkpt>
      <trkpt lat="47.3047" lon="5.00222">
        <ele>310.008</ele>
        <time>2012-08-28T07:53:27Z</time>
      </trkpt>
      <trkpt lat="47.3048" lon="5.00222">
        <ele>307.2</ele>
        <time>2012-08-28T07:53:38Z</time>
      </trkpt>
      <trkpt lat="47.30485" lon="5.0022">
        <ele>308.299</ele>
        <time>2012-08-28T07:53:49Z</time>
      </trkpt>
      <trkpt lat="47.30502" lon="5.00215">
        <ele>304.419</ele>
        <time>2012-08-28T07:54:00Z</time>
      </trkpt>
      <trkpt lat="47.30517" lon="5.00212">
        <ele>302.863</ele>
        <time>2012-08-28T07:54:11Z</time>
      </trkpt>
      <trkpt lat="47.30528" lon="5.00208">
        <ele>301.39</ele>
        <time>2012-08-28T07:54:22Z</time>
      </trkpt>
      <trkpt lat="47.3054" lon="5.00205">
        <ele>302.653</ele>
        <time>2012-08-28T07:54:33Z</time>
      </trkpt>
      <trkpt lat="47.30555" lon="5.00202">
        <ele>300.68</ele>
        <time>2012-08-28T07:54:44Z</time>
      </trkpt>
      <trkpt lat="47.30568" lon="5.00198">
        <ele>300.111</ele>
        <time>2012-08-28T07:54:55Z</time>
      </trkpt>
      <trkpt lat="47.3058" lon="5.00195">
        <ele>300.204</ele>
        <time>2012-08-28T07:55:06Z</time>
      </trkpt>
      <trkpt lat="47.30595" lon="5.00192">
        <ele>298.582</ele>
        <time>2012-08-28T07:55:17Z</time>
      </trkpt>
      <trkpt lat="47.30608" lon="5.00192">
        <ele>299.918</ele>
        <time>2012-08-28T07:55:28Z</time>
      </trkpt>
      <trkpt lat="47.30618" lon="5.00195">
        <ele>300.287</ele>
        <time>2012-08-28T07:55:39Z</time>
      </trkpt>
      <trkpt lat="47.30627" lon="5.00197">
        <ele>300.288</ele>
        <time>2012-08-28T07:55:50Z</time>
      </trkpt>
      <trkpt lat="47.30642" lon="5.002">
        <ele>298.252</ele>
        <time>2012-08-28T07:56:01Z</time>
      </trkpt>
      <trkpt lat="47.30655" lon="5.00202">
        <ele>296.106</ele>
        <time>2012-08-28T07:56:12Z</time>
      </trkpt>
      <trkpt lat="47.30668" lon="5.00208">
        <ele>297.93</ele>
        <time>2012-08-28T07:56:23Z</time>
      </trkpt>
      <trkpt lat="47.30683" lon="5.00207">
        <ele>297.478</ele>
        <time>2012-08-28T07:56:34Z</time>
      </trkpt>
      <trkpt lat="47.30695" lon="5.00208">
        <ele>297.583</ele>
        <time>2012-08-28T07:56:45Z</time>
      </trkpt>
      <trkpt lat="47.30705" lon="5.0021">
        <ele>295.284</ele>
        <time>2012-08-28T07:56:56Z</time>
      </trkpt>
      <trkpt lat="47.30717" lon="5.0021">
        <ele>295.057</ele>
        <time>2012-08-28T07:57:07Z</time>
      </trkpt>
      <trkpt lat="47.30735" lon="5.00218">
        <ele>291.277</ele>
        <time>2012-08-28T07:57:18Z</time>
      </trkpt>
      <trkpt lat="47.30753" lon="5.0022">
        <ele>291.67</ele>
        <time>2012-08-28T07:57:29Z</time>
      </trkpt>
      <trkpt lat="47.30767" lon="5.00215">
        <ele>292.164</ele>
        <time>2012-08-28T07:57:40Z</time>
      </trkpt>
      <trkpt lat="47.3078" lon="5.00212">
        <ele>290.701</ele>
        <time>2012-08-28T07:57:51Z</time>
      </trkpt>
      <trkpt lat="47.30792" lon="5.00208">
        <ele>289.621</ele>
        <time>2012-08-28T07:58:02Z</time>
      </trkpt>
      <trkpt lat="47.30807" lon="5.00203">
        <ele>288.21</ele>
        <time>2012-08-28T07:58:13Z</time>
      </trkpt>
      <trkpt lat="47.30818" lon="5.00197">
        <ele>287.777</ele>
        <time>2012-08-28T07:58:24Z</time>
      </trkpt>
      <trkpt lat="47.30835" lon="5.00193">
        <ele>286.15</ele>
        <time>2012-08-28T07:58:35Z</time>
      </trkpt>
      <trkpt lat="47.30848" lon="5.00192">
        <ele>284.215</ele>
        <time>2012-08-28T07:58:46Z</time>
      </trkpt>
      <trkpt lat="47.30862" lon="5.00185">
        <ele>281.83</ele>
        <time>2012-08-28T07:58:57Z</time>
      </trkpt>
      <trkpt lat="47.30872" lon="5.00178">
        <ele>284.271</ele>
        <time>2012-08-28T07:59:08Z</time>
      </trkpt>
      <trkpt lat="47.30888" lon="5.00173">
        <ele>282.655</ele>
        <time>2012-08-28T07:59:19Z</time>
      </trkpt>
      <trkpt lat="47.30897" lon="5.0017">
        <ele>281.688</ele>
        <time>2012-08-28T07:59:30Z</time>
      </trkpt>
      <trkpt lat="47.30907" lon="5.00163">
        <ele>278.63</ele>
        <time>2012-08-28T07:59:41Z</time>
      </trkpt>
      <trkpt lat="47.3092" lon="5.0016">
        <ele>278.128</ele>
        <time>2012-08-28T07:59:52Z</time>
      </trkpt>
      <trkpt lat="47.30933" lon="5.00155">
        <ele>279.816</ele>
        <time>2012-08-28T08:00:03Z</time>
      </trkpt>
      <trkpt lat="47.3094" lon="5.00145">
        <ele>283.813</ele>
        <time>2012-08-28T08:00:14Z</time>
      </trkpt>
      <trkpt lat="47.30948" lon="5.00132">
        <ele>287.58</ele>
        <time>2012-08-28T08:00:25Z</time>
      </trkpt>
      <trkpt lat="47.30963" lon="5.00125">
        <ele>289.941</ele>
        <time>2012-08-28T08:00:36Z</time>
      </trkpt>
      <trkpt lat="47.30968" lon="5.00122">
        <ele>289.793</ele>
        <time>2012-08-28T08:00:47Z</time>
      </trkpt>
      <trkpt lat="47.30968" lon="5.0012">
        <ele>288.955</ele>
        <time>2012-08-28T08:00:58Z</time>
      </trkpt>
      <trkpt lat="47.30975" lon="5.00117">
        <ele>286.501</ele>
        <time>2012-08-28T08:01:09Z</time>
      </trkpt>
      <trkpt lat="47.30982" lon="5.0011">
        <ele>285.63</ele>
        <time>2012-08-28T08:01:20Z</time>
      </trkpt>
      <trkpt lat="47.30992" lon="5.00097">
        <ele>284.254</ele>
        <time>2012-08-28T08:01:31Z</time>
      </trkpt>
      <trkpt lat="47.30995" lon="5.00092">
        <ele>283.376</ele>
        <time>2012-08-28T08:01:42Z</time>
      </trkpt>
      <trkpt lat="47.30995" lon="5.00092">
        <ele>284.381</ele>
        <time>2012-08-28T08:01:53Z</time>
      </trkpt>
      <trkpt lat="47.30997" lon="5.00092">
        <ele>284.833</ele>
        <time>2012-08-28T08:02:04Z</time>
      </trkpt>
      <trkpt lat="47.30997" lon="5.00092">
        <ele>284.253</ele>
        <time>2012-08-28T08:02:15Z</time>
      </trkpt>
      <trkpt lat="47.30997" lon="5.00092">
        <ele>284.754</ele>
        <time>2012-08-28T08:02:26Z</time>
      </trkpt>
      <trkpt lat="47.30997" lon="5.00092">
        <ele>284.754</ele>
        <time>2012-08-28T08:02:37Z</time>
      </trkpt>
      <trkpt lat="47.30997" lon="5.00092">
        <ele>284.909</ele>
        <time>2012-08-28T08:02:48Z</time>
      </trkpt>
      <trkpt lat="47.30998" lon="5.00093">
        <ele>285.939</ele>
        <time>2012-08-28T08:02:59Z</time>
      </trkpt>
      <trkpt lat="47.30997" lon="5.00093">
        <ele>286.031</ele>
        <time>2012-08-28T08:03:10Z</time>
      </trkpt>
      <trkpt lat="47.30998" lon="5.00092">
        <ele>285.057</ele>
        <time>2012-08-28T08:03:21Z</time>
      </trkpt>
      <trkpt lat="47.31" lon="5.00093">
        <ele>284.869</ele>
        <time>2012-08-28T08:03:32Z</time>
      </trkpt>
      <trkpt lat="47.31003" lon="5.00095">
        <ele>285.879</ele>
        <time>2012-08-28T08:03:43Z</time>
      </trkpt>
      <trkpt lat="47.31012" lon="5.0011">
        <ele>285.481</ele>
        <time>2012-08-28T08:03:54Z</time>
      </trkpt>
      <trkpt lat="47.31018" lon="5.0012">
        <ele>284.64</ele>
        <time>2012-08-28T08:04:05Z</time>
      </trkpt>
      <trkpt lat="47.31033" lon="5.00128">
        <ele>283.517</ele>
        <time>2012-08-28T08:04:16Z</time>
      </trkpt>
      <trkpt lat="47.31047" lon="5.00125">
        <ele>282.448</ele>
        <time>2012-08-28T08:04:27Z</time>
      </trkpt>
      <trkpt lat="47.31058" lon="5.00117">
        <ele>280.204</ele>
        <time>2012-08-28T08:04:38Z</time>
      </trkpt>
      <trkpt lat="47.3107" lon="5.00112">
        <ele>282.344</ele>
        <time>2012-08-28T08:04:49Z</time>
      </trkpt>
      <trkpt lat="47.3108" lon="5.00102">
        <ele>284.094</ele>
        <time>2012-08-28T08:05:00Z</time>
      </trkpt>
      <trkpt lat="47.31092" lon="5.00092">
        <ele>285.584</ele>
        <time>2012-08-28T08:05:11Z</time>
      </trkpt>
      <trkpt lat="47.31103" lon="5.00083">
        <ele>285.847</ele>
        <time>2012-08-28T08:05:22Z</time>
      </trkpt>
      <trkpt lat="47.31113" lon="5.00077">
        <ele>288.366</ele>
        <time>2012-08-28T08:05:33Z</time>
      </trkpt>
      <trkpt lat="47.31122" lon="5.0007">
        <ele>288.592</ele>
        <time>2012-08-28T08:05:44Z</time>
      </trkpt>
      <trkpt lat="47.31122" lon="5.0007">
        <ele>288.59</ele>
        <time>2012-08-28T08:05:55Z</time>
      </trkpt>
      <trkpt lat="47.3113" lon="5.00063">
        <ele>290.959</ele>
        <time>2012-08-28T08:06:06Z</time>
      </trkpt>
      <trkpt lat="47.31142" lon="5.00053">
        <ele>291.059</ele>
        <time>2012-08-28T08:06:17Z</time>
      </trkpt>
      <trkpt lat="47.31153" lon="5.00048">
        <ele>292.541</ele>
        <time>2012-08-28T08:06:28Z</time>
      </trkpt>
      <trkpt lat="47.31163" lon="5.00038">
        <ele>293.334</ele>
        <time>2012-08-28T08:06:39Z</time>
      </trkpt>
      <trkpt lat="47.31172" lon="5.00032">
        <ele>295.069</ele>
        <time>2012-08-28T08:06:50Z</time>
      </trkpt>
      <trkpt lat="47.3118" lon="5.00022">
        <ele>293.66</ele>
        <time>2012-08-28T08:07:01Z</time>
      </trkpt>
      <trkpt lat="47.31182" lon="5.00015">
        <ele>295.518</ele>
        <time>2012-08-28T08:07:12Z</time>
      </trkpt>
      <trkpt lat="47.31185" lon="5">
        <ele>297.444</ele>
        <time>2012-08-28T08:07:23Z</time>
      </trkpt>
      <trkpt lat="47.31187" lon="4.9999">
        <ele>306.953</ele>
        <time>2012-08-28T08:07:34Z</time>
      </trkpt>
      <trkpt lat="47.3119" lon="4.99975">
        <ele>311.859</ele>
        <time>2012-08-28T08:07:45Z</time>
      </trkpt>
      <trkpt lat="47.31195" lon="4.99957">
        <ele>315.826</ele>
        <time>2012-08-28T08:07:56Z</time>
      </trkpt>
      <trkpt lat="47.31202" lon="4.99937">
        <ele>315.659</ele>
        <time>2012-08-28T08:08:07Z</time>
      </trkpt>
      <trkpt lat="47.31208" lon="4.99913">
        <ele>311.721</ele>
        <time>2012-08-28T08:08:18Z</time>
      </trkpt>
      <trkpt lat="47.31215" lon="4.99893">
        <ele>309.014</ele>
        <time>2012-08-28T08:08:29Z</time>
      </trkpt>
      <trkpt lat="47.3122" lon="4.99873">
        <ele>310.016</ele>
        <time>2012-08-28T08:08:40Z</time>
      </trkpt>
      <trkpt lat="47.3122" lon="4.99858">
        <ele>308.981</ele>
        <time>2012-08-28T08:08:51Z</time>
      </trkpt>
      <trkpt lat="47.31217" lon="4.99837">
        <ele>311.809</ele>
        <time>2012-08-28T08:09:02Z</time>
      </trkpt>
      <trkpt lat="47.31215" lon="4.99825">
        <ele>313.238</ele>
        <time>2012-08-28T08:09:13Z</time>
      </trkpt>
      <trkpt lat="47.3121" lon="4.99803">
        <ele>313.146</ele>
        <time>2012-08-28T08:09:24Z</time>
      </trkpt>
      <trkpt lat="47.31205" lon="4.99788">
        <ele>313.972</ele>
        <time>2012-08-28T08:09:35Z</time>
      </trkpt>
      <trkpt lat="47.312" lon="4.99773">
        <ele>313.667</ele>
        <time>2012-08-28T08:09:46Z</time>
      </trkpt>
      <trkpt lat="47.31195" lon="4.99762">
        <ele>314.513</ele>
        <time>2012-08-28T08:09:57Z</time>
      </trkpt>
      <trkpt lat="47.31188" lon="4.99747">
        <ele>319.687</ele>
        <time>2012-08-28T08:10:08Z</time>
      </trkpt>
      <trkpt lat="47.31195" lon="4.99732">
        <ele>322.043</ele>
        <time>2012-08-28T08:10:19Z</time>
      </trkpt>
      <trkpt lat="47.312" lon="4.99727">
        <ele>319.405</ele>
        <time>2012-08-28T08:10:30Z</time>
      </trkpt>
      <trkpt lat="47.31215" lon="4.99707">
        <ele>317.081</ele>
        <time>2012-08-28T08:10:41Z</time>
      </trkpt>
      <trkpt lat="47.31227" lon="4.99687">
        <ele>317.197</ele>
        <time>2012-08-28T08:10:52Z</time>
      </trkpt>
      <trkpt lat="47.31232" lon="4.9967">
        <ele>323.302</ele>
        <time>2012-08-28T08:11:03Z</time>
      </trkpt>
      <trkpt lat="47.31235" lon="4.99653">
        <ele>328.736</ele>
        <time>2012-08-28T08:11:14Z</time>
      </trkpt>
      <trkpt lat="47.3124" lon="4.99632">
        <ele>329.42</ele>
        <time>2012-08-28T08:11:25Z</time>
      </trkpt>
      <trkpt lat="47.31243" lon="4.99615">
        <ele>331.008</ele>
        <time>2012-08-28T08:11:36Z</time>
      </trkpt>
      <trkpt lat="47.31248" lon="4.99598">
        <ele>330.712</ele>
        <time>2012-08-28T08:11:47Z</time>
      </trkpt>
      <trkpt lat="47.31252" lon="4.9958">
        <ele>332.355</ele>
        <time>2012-08-28T08:11:58Z</time>
      </trkpt>
      <trkpt lat="47.31255" lon="4.99565">
        <ele>332.481</ele>
        <time>2012-08-28T08:12:09Z</time>
      </trkpt>
      <trkpt lat="47.31265" lon="4.99558">
        <ele>329.509</ele>
        <time>2012-08-28T08:12:20Z</time>
      </trkpt>
      <trkpt lat="47.31278" lon="4.99543">
        <ele>328.123</ele>
        <time>2012-08-28T08:12:31Z</time>
      </trkpt>
      <trkpt lat="47.31288" lon="4.99538">
        <ele>325.262</ele>
        <time>2012-08-28T08:12:42Z</time>
      </trkpt>
      <trkpt lat="47.31298" lon="4.99538">
        <ele>322.605</ele>
        <time>2012-08-28T08:12:53Z</time>
      </trkpt>
      <trkpt lat="47.31308" lon="4.99537">
        <ele>320.849</ele>
        <time>2012-08-28T08:13:04Z</time>
      </trkpt>
      <trkpt lat="47.3132" lon="4.99535">
        <ele>318.196</ele>
        <time>2012-08-28T08:13:15Z</time>
      </trkpt>
      <trkpt lat="47.31328" lon="4.99532">
        <ele>318.818</ele>
        <time>2012-08-28T08:13:26Z</time>
      </trkpt>
      <trkpt lat="47.31337" lon="4.99522">
        <ele>319.881</ele>
        <time>2012-08-28T08:13:37Z</time>
      </trkpt>
      <trkpt lat="47.31345" lon="4.99507">
        <ele>320.368</ele>
        <time>2012-08-28T08:13:48Z</time>
      </trkpt>
      <trkpt lat="47.3135" lon="4.99495">
        <ele>321.111</ele>
        <time>2012-08-28T08:13:59Z</time>
      </trkpt>
      <trkpt lat="47.31353" lon="4.99478">
        <ele>321.965</ele>
        <time>2012-08-28T08:14:10Z</time>
      </trkpt>
      <trkpt lat="47.31358" lon="4.9946">
        <ele>322.269</ele>
        <time>2012-08-28T08:14:21Z</time>
      </trkpt>
      <trkpt lat="47.3136" lon="4.9944">
        <ele>322.118</ele>
        <time>2012-08-28T08:14:32Z</time>
      </trkpt>
      <trkpt lat="47.31365" lon="4.99427">
        <ele>320.333</ele>
        <time>2012-08-28T08:14:43Z</time>
      </trkpt>
      <trkpt lat="47.31378" lon="4.99403">
        <ele>318.058</ele>
        <time>2012-08-28T08:14:54Z</time>
      </trkpt>
      <trkpt lat="47.31382" lon="4.99382">
        <ele>316.447</ele>
        <time>2012-08-28T08:15:05Z</time>
      </trkpt>
      <trkpt lat="47.31385" lon="4.99368">
        <ele>314.47</ele>
        <time>2012-08-28T08:15:16Z</time>
      </trkpt>
      <trkpt lat="47.31387" lon="4.99368">
        <ele>317.094</ele>
        <time>2012-08-28T08:15:27Z</time>
      </trkpt>
      <trkpt lat="47.31388" lon="4.9937">
        <ele>318.977</ele>
        <time>2012-08-28T08:15:38Z</time>
      </trkpt>
      <trkpt lat="47.31392" lon="4.99365">
        <ele>320.14</ele>
        <time>2012-08-28T08:15:49Z</time>
      </trkpt>
      <trkpt lat="47.31395" lon="4.99362">
        <ele>318.111</ele>
        <time>2012-08-28T08:16:00Z</time>
      </trkpt>
      <trkpt lat="47.314" lon="4.9936">
        <ele>318.716</ele>
        <time>2012-08-28T08:16:11Z</time>
      </trkpt>
      <trkpt lat="47.31408" lon="4.9936">
        <ele>320.191</ele>
        <time>2012-08-28T08:16:22Z</time>
      </trkpt>
      <trkpt lat="47.31412" lon="4.9936">
        <ele>324.827</ele>
        <time>2012-08-28T08:16:33Z</time>
      </trkpt>
      <trkpt lat="47.31417" lon="4.99355">
        <ele>325.551</ele>
        <time>2012-08-28T08:16:44Z</time>
      </trkpt>
      <trkpt lat="47.31417" lon="4.99348">
        <ele>326.797</ele>
        <time>2012-08-28T08:16:55Z</time>
      </trkpt>
      <trkpt lat="47.31417" lon="4.99348">
        <ele>327.044</ele>
        <time>2012-08-28T08:17:06Z</time>
      </trkpt>
      <trkpt lat="47.31417" lon="4.99348">
        <ele>327.044</ele>
        <time>2012-08-28T08:17:17Z</time>
      </trkpt>
      <trkpt lat="47.31417" lon="4.99347">
        <ele>326.624</ele>
        <time>2012-08-28T08:17:28Z</time>
      </trkpt>
      <trkpt lat="47.31418" lon="4.99347">
        <ele>325.975</ele>
        <time>2012-08-28T08:17:39Z</time>
      </trkpt>
      <trkpt lat="47.3142" lon="4.99345">
        <ele>325.821</ele>
        <time>2012-08-28T08:17:50Z</time>
      </trkpt>
      <trkpt lat="47.3142" lon="4.99345">
        <ele>325.88</ele>
        <time>2012-08-28T08:18:01Z</time>
      </trkpt>
      <trkpt lat="47.31427" lon="4.9933">
        <ele>327.522</ele>
        <time>2012-08-28T08:18:12Z</time>
      </trkpt>
      <trkpt lat="47.31427" lon="4.99313">
        <ele>332.063</ele>
        <time>2012-08-28T08:18:23Z</time>
      </trkpt>
      <trkpt lat="47.31433" lon="4.99303">
        <ele>333.634</ele>
        <time>2012-08-28T08:18:34Z</time>
      </trkpt>
      <trkpt lat="47.31447" lon="4.99305">
        <ele>335.406</ele>
        <time>2012-08-28T08:18:45Z</time>
      </trkpt>
      <trkpt lat="47.31458" lon="4.99312">
        <ele>337.739</ele>
        <time>2012-08-28T08:18:56Z</time>
      </trkpt>
      <trkpt lat="47.31468" lon="4.99317">
        <ele>340.167</ele>
        <time>2012-08-28T08:19:07Z</time>
      </trkpt>
      <trkpt lat="47.31478" lon="4.99325">
        <ele>342.316</ele>
        <time>2012-08-28T08:19:18Z</time>
      </trkpt>
      <trkpt lat="47.3149" lon="4.99333">
        <ele>342.221</ele>
        <time>2012-08-28T08:19:29Z</time>
      </trkpt>
      <trkpt lat="47.31502" lon="4.99338">
        <ele>344.587</ele>
        <time>2012-08-28T08:19:40Z</time>
      </trkpt>
      <trkpt lat="47.31513" lon="4.99345">
        <ele>344.786</ele>
        <time>2012-08-28T08:19:51Z</time>
      </trkpt>
      <trkpt lat="47.31527" lon="4.99352">
        <ele>346.679</ele>
        <time>2012-08-28T08:20:02Z</time>
      </trkpt>
      <trkpt lat="47.31538" lon="4.99362">
        <ele>348.583</ele>
        <time>2012-08-28T08:20:13Z</time>
      </trkpt>
      <trkpt lat="47.31552" lon="4.99372">
        <ele>350.186</ele>
        <time>2012-08-28T08:20:24Z</time>
      </trkpt>
      <trkpt lat="47.31563" lon="4.99378">
        <ele>350.416</ele>
        <time>2012-08-28T08:20:35Z</time>
      </trkpt>
      <trkpt lat="47.31575" lon="4.99388">
        <ele>351.114</ele>
        <time>2012-08-28T08:20:46Z</time>
      </trkpt>
      <trkpt lat="47.3159" lon="4.99397">
        <ele>351.93</ele>
        <time>2012-08-28T08:20:57Z</time>
      </trkpt>
      <trkpt lat="47.31605" lon="4.99403">
        <ele>352.05</ele>
        <time>2012-08-28T08:21:08Z</time>
      </trkpt>
      <trkpt lat="47.3162" lon="4.99408">
        <ele>350.423</ele>
        <time>2012-08-28T08:21:19Z</time>
      </trkpt>
      <trkpt lat="47.31635" lon="4.99412">
        <ele>349.651</ele>
        <time>2012-08-28T08:21:30Z</time>
      </trkpt>
      <trkpt lat="47.31647" lon="4.99413">
        <ele>350.486</ele>
        <time>2012-08-28T08:21:41Z</time>
      </trkpt>
      <trkpt lat="47.3166" lon="4.99415">
        <ele>351.169</ele>
        <time>2012-08-28T08:21:52Z</time>
      </trkpt>
      <trkpt lat="47.31667" lon="4.99398">
        <ele>351.866</ele>
        <time>2012-08-28T08:22:03Z</time>
      </trkpt>
      <trkpt lat="47.31668" lon="4.99388">
        <ele>352.391</ele>
        <time>2012-08-28T08:22:14Z</time>
      </trkpt>
      <trkpt lat="47.3167" lon="4.99368">
        <ele>354.23</ele>
        <time>2012-08-28T08:22:25Z</time>
      </trkpt>
      <trkpt lat="47.31673" lon="4.99352">
        <ele>353.2</ele>
        <time>2012-08-28T08:22:36Z</time>
      </trkpt>
      <trkpt lat="47.31675" lon="4.99332">
        <ele>353.562</ele>
        <time>2012-08-28T08:22:47Z</time>
      </trkpt>
      <trkpt lat="47.31677" lon="4.99313">
        <ele>353.747</ele>
        <time>2012-08-28T08:22:58Z</time>
      </trkpt>
      <trkpt lat="47.31678" lon="4.99302">
        <ele>353.265</ele>
        <time>2012-08-28T08:23:09Z</time>
      </trkpt>
      <trkpt lat="47.31683" lon="4.9928">
        <ele>354.3</ele>
        <time>2012-08-28T08:23:20Z</time>
      </trkpt>
      <trkpt lat="47.31683" lon="4.99262">
        <ele>356.956</ele>
        <time>2012-08-28T08:23:31Z</time>
      </trkpt>
      <trkpt lat="47.31683" lon="4.99238">
        <ele>359.176</ele>
        <time>2012-08-28T08:23:42Z</time>
      </trkpt>
      <trkpt lat="47.31687" lon="4.9922">
        <ele>360.593</ele>
        <time>2012-08-28T08:23:53Z</time>
      </trkpt>
      <trkpt lat="47.3169" lon="4.99198">
        <ele>362.115</ele>
        <time>2012-08-28T08:24:04Z</time>
      </trkpt>
      <trkpt lat="47.3169" lon="4.99182">
        <ele>363.791</ele>
        <time>2012-08-28T08:24:15Z</time>
      </trkpt>
      <trkpt lat="47.31692" lon="4.99158">
        <ele>364.776</ele>
        <time>2012-08-28T08:24:26Z</time>
      </trkpt>
      <trkpt lat="47.31695" lon="4.9914">
        <ele>364.588</ele>
        <time>2012-08-28T08:24:37Z</time>
      </trkpt>
      <trkpt lat="47.31697" lon="4.99117">
        <ele>364.948</ele>
        <time>2012-08-28T08:24:48Z</time>
      </trkpt>
      <trkpt lat="47.317" lon="4.99095">
        <ele>364.179</ele>
        <time>2012-08-28T08:24:59Z</time>
      </trkpt>
      <trkpt lat="47.317" lon="4.99082">
        <ele>367.01</ele>
        <time>2012-08-28T08:25:10Z</time>
      </trkpt>
      <trkpt lat="47.31698" lon="4.99063">
        <ele>367.647</ele>
        <time>2012-08-28T08:25:21Z</time>
      </trkpt>
      <trkpt lat="47.317" lon="4.99043">
        <ele>368.205</ele>
        <time>2012-08-28T08:25:32Z</time>
      </trkpt>
      <trkpt lat="47.317" lon="4.9903">
        <ele>369.894</ele>
        <time>2012-08-28T08:25:43Z</time>
      </trkpt>
      <trkpt lat="47.31697" lon="4.99013">
        <ele>371.974</ele>
        <time>2012-08-28T08:25:54Z</time>
      </trkpt>
      <trkpt lat="47.31697" lon="4.9899">
        <ele>372.465</ele>
        <time>2012-08-28T08:26:05Z</time>
      </trkpt>
      <trkpt lat="47.31697" lon="4.98967">
        <ele>374.035</ele>
        <time>2012-08-28T08:26:16Z</time>
      </trkpt>
      <trkpt lat="47.31697" lon="4.98947">
        <ele>376.804</ele>
        <time>2012-08-28T08:26:27Z</time>
      </trkpt>
      <trkpt lat="47.31695" lon="4.98932">
        <ele>380.467</ele>
        <time>2012-08-28T08:26:38Z</time>
      </trkpt>
      <trkpt lat="47.31698" lon="4.98915">
        <ele>381.219</ele>
        <time>2012-08-28T08:26:49Z</time>
      </trkpt>
      <trkpt lat="47.31707" lon="4.98902">
        <ele>380.388</ele>
        <time>2012-08-28T08:27:00Z</time>
      </trkpt>
      <trkpt lat="47.31713" lon="4.98892">
        <ele>377.106</ele>
        <time>2012-08-28T08:27:11Z</time>
      </trkpt>
      <trkpt lat="47.3172" lon="4.9888">
        <ele>376.259</ele>
        <time>2012-08-28T08:27:22Z</time>
      </trkpt>
      <trkpt lat="47.31725" lon="4.9887">
        <ele>375.868</ele>
        <time>2012-08-28T08:27:33Z</time>
      </trkpt>
      <trkpt lat="47.3173" lon="4.98857">
        <ele>375.716</ele>
        <time>2012-08-28T08:27:44Z</time>
      </trkpt>
      <trkpt lat="47.31737" lon="4.98833">
        <ele>377.883</ele>
        <time>2012-08-28T08:27:55Z</time>
      </trkpt>
      <trkpt lat="47.31743" lon="4.98817">
        <ele>379.867</ele>
        <time>2012-08-28T08:28:06Z</time>
      </trkpt>
      <trkpt lat="47.31758" lon="4.98813">
        <ele>377.108</ele>
        <time>2012-08-28T08:28:17Z</time>
      </trkpt>
      <trkpt lat="47.31772" lon="4.9881">
        <ele>375.239</ele>
        <time>2012-08-28T08:28:28Z</time>
      </trkpt>
      <trkpt lat="47.31783" lon="4.98808">
        <ele>373.53</ele>
        <time>2012-08-28T08:28:39Z</time>
      </trkpt>
      <trkpt lat="47.31795" lon="4.98807">
        <ele>370.678</ele>
        <time>2012-08-28T08:28:50Z</time>
      </trkpt>
      <trkpt lat="47.3181" lon="4.98808">
        <ele>364.374</ele>
        <time>2012-08-28T08:29:01Z</time>
      </trkpt>
      <trkpt lat="47.31822" lon="4.9881">
        <ele>361.959</ele>
        <time>2012-08-28T08:29:12Z</time>
      </trkpt>
      <trkpt lat="47.31833" lon="4.9881">
        <ele>360.499</ele>
        <time>2012-08-28T08:29:23Z</time>
      </trkpt>
      <trkpt lat="47.31847" lon="4.98813">
        <ele>359.486</ele>
        <time>2012-08-28T08:29:34Z</time>
      </trkpt>
      <trkpt lat="47.3186" lon="4.9882">
        <ele>354.834</ele>
        <time>2012-08-28T08:29:45Z</time>
      </trkpt>
      <trkpt lat="47.31872" lon="4.98823">
        <ele>350.223</ele>
        <time>2012-08-28T08:29:56Z</time>
      </trkpt>
      <trkpt lat="47.31885" lon="4.98827">
        <ele>346.481</ele>
        <time>2012-08-28T08:30:07Z</time>
      </trkpt>
      <trkpt lat="47.31893" lon="4.98823">
        <ele>345.064</ele>
        <time>2012-08-28T08:30:18Z</time>
      </trkpt>
      <trkpt lat="47.31897" lon="4.9881">
        <ele>345.139</ele>
        <time>2012-08-28T08:30:29Z</time>
      </trkpt>
      <trkpt lat="47.31897" lon="4.988">
        <ele>346.627</ele>
        <time>2012-08-28T08:30:40Z</time>
      </trkpt>
      <trkpt lat="47.31897" lon="4.98783">
        <ele>348.707</ele>
        <time>2012-08-28T08:30:51Z</time>
      </trkpt>
      <trkpt lat="47.31897" lon="4.98768">
        <ele>349.602</ele>
        <time>2012-08-28T08:31:02Z</time>
      </trkpt>
      <trkpt lat="47.31897" lon="4.9875">
        <ele>349.842</ele>
        <time>2012-08-28T08:31:13Z</time>
      </trkpt>
      <trkpt lat="47.31897" lon="4.98728">
        <ele>350.464</ele>
        <time>2012-08-28T08:31:24Z</time>
      </trkpt>
      <trkpt lat="47.31895" lon="4.9871">
        <ele>350.891</ele>
        <time>2012-08-28T08:31:35Z</time>
      </trkpt>
      <trkpt lat="47.31895" lon="4.98697">
        <ele>350.556</ele>
        <time>2012-08-28T08:31:46Z</time>
      </trkpt>
      <trkpt lat="47.31895" lon="4.98672">
        <ele>349.014</ele>
        <time>2012-08-28T08:31:57Z</time>
      </trkpt>
      <trkpt lat="47.31897" lon="4.98663">
        <ele>350.024</ele>
        <time>2012-08-28T08:32:08Z</time>
      </trkpt>
      <trkpt lat="47.31898" lon="4.98652">
        <ele>350.502</ele>
        <time>2012-08-28T08:32:19Z</time>
      </trkpt>
      <trkpt lat="47.319" lon="4.98637">
        <ele>351.393</ele>
        <time>2012-08-28T08:32:30Z</time>
      </trkpt>
      <trkpt lat="47.31903" lon="4.9861">
        <ele>351.547</ele>
        <time>2012-08-28T08:32:41Z</time>
      </trkpt>
      <trkpt lat="47.31903" lon="4.98585">
        <ele>349.761</ele>
        <time>2012-08-28T08:32:52Z</time>
      </trkpt>
      <trkpt lat="47.31903" lon="4.98557">
        <ele>347.736</ele>
        <time>2012-08-28T08:33:03Z</time>
      </trkpt>
      <trkpt lat="47.31905" lon="4.98537">
        <ele>347.619</ele>
        <time>2012-08-28T08:33:14Z</time>
      </trkpt>
      <trkpt lat="47.31905" lon="4.98508">
        <ele>345.827</ele>
        <time>2012-08-28T08:33:25Z</time>
      </trkpt>
      <trkpt lat="47.31905" lon="4.98482">
        <ele>343.663</ele>
        <time>2012-08-28T08:33:36Z</time>
      </trkpt>
      <trkpt lat="47.31903" lon="4.98467">
        <ele>344.882</ele>
        <time>2012-08-28T08:33:47Z</time>
      </trkpt>
      <trkpt lat="47.31903" lon="4.98447">
        <ele>344.08</ele>
        <time>2012-08-28T08:33:58Z</time>
      </trkpt>
      <trkpt lat="47.319" lon="4.98428">
        <ele>343.529</ele>
        <time>2012-08-28T08:34:09Z</time>
      </trkpt>
      <trkpt lat="47.31903" lon="4.98413">
        <ele>341.933</ele>
        <time>2012-08-28T08:34:20Z</time>
      </trkpt>
      <trkpt lat="47.319" lon="4.98387">
        <ele>343.511</ele>
        <time>2012-08-28T08:34:31Z</time>
      </trkpt>
      <trkpt lat="47.31898" lon="4.98368">
        <ele>343.695</ele>
        <time>2012-08-28T08:34:42Z</time>
      </trkpt>
      <trkpt lat="47.31897" lon="4.98347">
        <ele>343.907</ele>
        <time>2012-08-28T08:34:53Z</time>
      </trkpt>
      <trkpt lat="47.31895" lon="4.98325">
        <ele>344.768</ele>
        <time>2012-08-28T08:35:04Z</time>
      </trkpt>
      <trkpt lat="47.31897" lon="4.98302">
        <ele>342.355</ele>
        <time>2012-08-28T08:35:15Z</time>
      </trkpt>
      <trkpt lat="47.31895" lon="4.98275">
        <ele>341.968</ele>
        <time>2012-08-28T08:35:26Z</time>
      </trkpt>
      <trkpt lat="47.31893" lon="4.98247">
        <ele>340.356</ele>
        <time>2012-08-28T08:35:37Z</time>
      </trkpt>
      <trkpt lat="47.3189" lon="4.98223">
        <ele>339.855</ele>
        <time>2012-08-28T08:35:48Z</time>
      </trkpt>
      <trkpt lat="47.31888" lon="4.982">
        <ele>337.705</ele>
        <time>2012-08-28T08:35:59Z</time>
      </trkpt>
      <trkpt lat="47.31883" lon="4.98182">
        <ele>337.03</ele>
        <time>2012-08-28T08:36:10Z</time>
      </trkpt>
      <trkpt lat="47.31877" lon="4.9816">
        <ele>338.141</ele>
        <time>2012-08-28T08:36:21Z</time>
      </trkpt>
      <trkpt lat="47.31875" lon="4.98143">
        <ele>339.623</ele>
        <time>2012-08-28T08:36:32Z</time>
      </trkpt>
      <trkpt lat="47.3187" lon="4.98127">
        <ele>342.769</ele>
        <time>2012-08-28T08:36:43Z</time>
      </trkpt>
      <trkpt lat="47.31865" lon="4.9811">
        <ele>345.294</ele>
        <time>2012-08-28T08:36:54Z</time>
      </trkpt>
      <trkpt lat="47.3186" lon="4.98097">
        <ele>346.424</ele>
        <time>2012-08-28T08:37:05Z</time>
      </trkpt>
      <trkpt lat="47.31857" lon="4.98078">
        <ele>344.532</ele>
        <time>2012-08-28T08:37:16Z</time>
      </trkpt>
      <trkpt lat="47.31855" lon="4.98072">
        <ele>345.255</ele>
        <time>2012-08-28T08:37:27Z</time>
      </trkpt>
      <trkpt lat="47.31857" lon="4.98063">
        <ele>344.887</ele>
        <time>2012-08-28T08:37:38Z</time>
      </trkpt>
      <trkpt lat="47.3185" lon="4.98045">
        <ele>343.331</ele>
        <time>2012-08-28T08:37:49Z</time>
      </trkpt>
      <trkpt lat="47.31845" lon="4.98035">
        <ele>343.26</ele>
        <time>2012-08-28T08:38:00Z</time>
      </trkpt>
      <trkpt lat="47.31847" lon="4.98023">
        <ele>343.25</ele>
        <time>2012-08-28T08:38:11Z</time>
      </trkpt>
      <trkpt lat="47.31843" lon="4.97997">
        <ele>341.316</ele>
        <time>2012-08-28T08:38:22Z</time>
      </trkpt>
      <trkpt lat="47.31838" lon="4.97973">
        <ele>341.06</ele>
        <time>2012-08-28T08:38:33Z</time>
      </trkpt>
      <trkpt lat="47.31837" lon="4.97947">
        <ele>340.388</ele>
        <time>2012-08-28T08:38:44Z</time>
      </trkpt>
      <trkpt lat="47.31835" lon="4.9793">
        <ele>340.955</ele>
        <time>2012-08-28T08:38:55Z</time>
      </trkpt>
      <trkpt lat="47.31832" lon="4.97913">
        <ele>342.416</ele>
        <time>2012-08-28T08:39:06Z</time>
      </trkpt>
      <trkpt lat="47.31827" lon="4.97895">
        <ele>342.793</ele>
        <time>2012-08-28T08:39:17Z</time>
      </trkpt>
      <trkpt lat="47.3182" lon="4.97875">
        <ele>342.441</ele>
        <time>2012-08-28T08:39:28Z</time>
      </trkpt>
      <trkpt lat="47.31818" lon="4.97862">
        <ele>339.151</ele>
        <time>2012-08-28T08:39:39Z</time>
      </trkpt>
      <trkpt lat="47.31808" lon="4.97853">
        <ele>341.561</ele>
        <time>2012-08-28T08:39:50Z</time>
      </trkpt>
      <trkpt lat="47.31802" lon="4.9784">
        <ele>344.344</ele>
        <time>2012-08-28T08:40:01Z</time>
      </trkpt>
      <trkpt lat="47.31802" lon="4.97825">
        <ele>346.081</ele>
        <time>2012-08-28T08:40:12Z</time>
      </trkpt>
      <trkpt lat="47.31802" lon="4.97817">
        <ele>346.336</ele>
        <time>2012-08-28T08:40:23Z</time>
      </trkpt>
      <trkpt lat="47.318" lon="4.97793">
        <ele>343.447</ele>
        <time>2012-08-28T08:40:34Z</time>
      </trkpt>
      <trkpt lat="47.31793" lon="4.97778">
        <ele>342.802</ele>
        <time>2012-08-28T08:40:45Z</time>
      </trkpt>
      <trkpt lat="47.3179" lon="4.9776">
        <ele>342.395</ele>
        <time>2012-08-28T08:40:56Z</time>
      </trkpt>
      <trkpt lat="47.31787" lon="4.97745">
        <ele>341.069</ele>
        <time>2012-08-28T08:41:07Z</time>
      </trkpt>
      <trkpt lat="47.3178" lon="4.97728">
        <ele>342.401</ele>
        <time>2012-08-28T08:41:18Z</time>
      </trkpt>
      <trkpt lat="47.3177" lon="4.977">
        <ele>340.479</ele>
        <time>2012-08-28T08:41:29Z</time>
      </trkpt>
      <trkpt lat="47.31765" lon="4.97687">
        <ele>340.03</ele>
        <time>2012-08-28T08:41:40Z</time>
      </trkpt>
      <trkpt lat="47.31758" lon="4.97667">
        <ele>338.592</ele>
        <time>2012-08-28T08:41:51Z</time>
      </trkpt>
      <trkpt lat="47.31745" lon="4.97652">
        <ele>335.934</ele>
        <time>2012-08-28T08:42:02Z</time>
      </trkpt>
      <trkpt lat="47.3174" lon="4.9764">
        <ele>335.815</ele>
        <time>2012-08-28T08:42:13Z</time>
      </trkpt>
      <trkpt lat="47.31735" lon="4.9763">
        <ele>336.364</ele>
        <time>2012-08-28T08:42:24Z</time>
      </trkpt>
      <trkpt lat="47.31732" lon="4.97622">
        <ele>338.335</ele>
        <time>2012-08-28T08:42:35Z</time>
      </trkpt>
      <trkpt lat="47.31725" lon="4.97608">
        <ele>335.134</ele>
        <time>2012-08-28T08:42:46Z</time>
      </trkpt>
      <trkpt lat="47.31717" lon="4.97592">
        <ele>336.29</ele>
        <time>2012-08-28T08:42:57Z</time>
      </trkpt>
      <trkpt lat="47.31707" lon="4.97582">
        <ele>335.218</ele>
        <time>2012-08-28T08:43:08Z</time>
      </trkpt>
      <trkpt lat="47.31705" lon="4.9757">
        <ele>336.231</ele>
        <time>2012-08-28T08:43:19Z</time>
      </trkpt>
      <trkpt lat="47.31695" lon="4.9756">
        <ele>337.48</ele>
        <time>2012-08-28T08:43:30Z</time>
      </trkpt>
      <trkpt lat="47.31687" lon="4.97543">
        <ele>338.926</ele>
        <time>2012-08-28T08:43:41Z</time>
      </trkpt>
      <trkpt lat="47.31683" lon="4.97528">
        <ele>339.621</ele>
        <time>2012-08-28T08:43:52Z</time>
      </trkpt>
      <trkpt lat="47.31678" lon="4.97507">
        <ele>342.945</ele>
        <time>2012-08-28T08:44:03Z</time>
      </trkpt>
      <trkpt lat="47.31673" lon="4.97492">
        <ele>344.393</ele>
        <time>2012-08-28T08:44:14Z</time>
      </trkpt>
      <trkpt lat="47.3167" lon="4.97477">
        <ele>343.825</ele>
        <time>2012-08-28T08:44:25Z</time>
      </trkpt>
      <trkpt lat="47.31663" lon="4.97467">
        <ele>342.543</ele>
        <time>2012-08-28T08:44:36Z</time>
      </trkpt>
      <trkpt lat="47.31652" lon="4.97453">
        <ele>342.876</ele>
        <time>2012-08-28T08:44:47Z</time>
      </trkpt>
      <trkpt lat="47.31632" lon="4.97438">
        <ele>344.081</ele>
        <time>2012-08-28T08:44:58Z</time>
      </trkpt>
      <trkpt lat="47.31617" lon="4.9743">
        <ele>344.716</ele>
        <time>2012-08-28T08:45:09Z</time>
      </trkpt>
      <trkpt lat="47.31602" lon="4.97418">
        <ele>345.573</ele>
        <time>2012-08-28T08:45:20Z</time>
      </trkpt>
      <trkpt lat="47.31592" lon="4.9741">
        <ele>346.111</ele>
        <time>2012-08-28T08:45:31Z</time>
      </trkpt>
      <trkpt lat="47.31585" lon="4.97403">
        <ele>345.978</ele>
        <time>2012-08-28T08:45:42Z</time>
      </trkpt>
      <trkpt lat="47.31575" lon="4.97395">
        <ele>346.099</ele>
        <time>2012-08-28T08:45:53Z</time>
      </trkpt>
      <trkpt lat="47.31562" lon="4.97387">
        <ele>345.98</ele>
        <time>2012-08-28T08:46:04Z</time>
      </trkpt>
      <trkpt lat="47.3155" lon="4.9738">
        <ele>347.92</ele>
        <time>2012-08-28T08:46:15Z</time>
      </trkpt>
      <trkpt lat="47.3154" lon="4.97368">
        <ele>352.303</ele>
        <time>2012-08-28T08:46:26Z</time>
      </trkpt>
      <trkpt lat="47.31523" lon="4.97355">
        <ele>352.215</ele>
        <time>2012-08-28T08:46:37Z</time>
      </trkpt>
      <trkpt lat="47.31505" lon="4.97335">
        <ele>352.23</ele>
        <time>2012-08-28T08:46:48Z</time>
      </trkpt>
      <trkpt lat="47.31488" lon="4.97318">
        <ele>352.605</ele>
        <time>2012-08-28T08:46:59Z</time>
      </trkpt>
      <trkpt lat="47.31478" lon="4.97308">
        <ele>353.195</ele>
        <time>2012-08-28T08:47:10Z</time>
      </trkpt>
      <trkpt lat="47.3147" lon="4.97295">
        <ele>354.079</ele>
        <time>2012-08-28T08:47:21Z</time>
      </trkpt>
      <trkpt lat="47.3146" lon="4.97283">
        <ele>352.954</ele>
        <time>2012-08-28T08:47:32Z</time>
      </trkpt>
      <trkpt lat="47.31455" lon="4.97277">
        <ele>352.928</ele>
        <time>2012-08-28T08:47:43Z</time>
      </trkpt>
      <trkpt lat="47.31443" lon="4.97265">
        <ele>352.48</ele>
        <time>2012-08-28T08:47:54Z</time>
      </trkpt>
      <trkpt lat="47.3143" lon="4.97247">
        <ele>352.814</ele>
        <time>2012-08-28T08:48:05Z</time>
      </trkpt>
      <trkpt lat="47.31417" lon="4.97233">
        <ele>353.607</ele>
        <time>2012-08-28T08:48:16Z</time>
      </trkpt>
      <trkpt lat="47.31407" lon="4.97222">
        <ele>341</ele>
        <time>2012-08-28T08:48:27Z</time>
      </trkpt>
      <trkpt lat="47.31395" lon="4.97213">
        <ele>351.802</ele>
        <time>2012-08-28T08:48:38Z</time>
      </trkpt>
      <trkpt lat="47.31383" lon="4.97203">
        <ele>350.848</ele>
        <time>2012-08-28T08:48:49Z</time>
      </trkpt>
      <trkpt lat="47.3136" lon="4.97193">
        <ele>348.547</ele>
        <time>2012-08-28T08:49:00Z</time>
      </trkpt>
      <trkpt lat="47.31345" lon="4.9719">
        <ele>350.764</ele>
        <time>2012-08-28T08:49:11Z</time>
      </trkpt>
      <trkpt lat="47.31338" lon="4.9719">
        <ele>351.996</ele>
        <time>2012-08-28T08:49:22Z</time>
      </trkpt>
      <trkpt lat="47.31337" lon="4.9719">
        <ele>351.854</ele>
        <time>2012-08-28T08:49:33Z</time>
      </trkpt>
      <trkpt lat="47.31333" lon="4.97188">
        <ele>349.054</ele>
        <time>2012-08-28T08:49:44Z</time>
      </trkpt>
      <trkpt lat="47.31332" lon="4.97188">
        <ele>348.692</ele>
        <time>2012-08-28T08:49:55Z</time>
      </trkpt>
      <trkpt lat="47.31333" lon="4.97185">
        <ele>350.199</ele>
        <time>2012-08-28T08:50:06Z</time>
      </trkpt>
      <trkpt lat="47.31332" lon="4.97185">
        <ele>350.369</ele>
        <time>2012-08-28T08:50:17Z</time>
      </trkpt>
      <trkpt lat="47.3133" lon="4.97185">
        <ele>350.592</ele>
        <time>2012-08-28T08:50:28Z</time>
      </trkpt>
      <trkpt lat="47.31325" lon="4.97182">
        <ele>352.52</ele>
        <time>2012-08-28T08:50:39Z</time>
      </trkpt>
      <trkpt lat="47.31323" lon="4.97182">
        <ele>352.603</ele>
        <time>2012-08-28T08:50:50Z</time>
      </trkpt>
      <trkpt lat="47.31323" lon="4.97182">
        <ele>351.893</ele>
        <time>2012-08-28T08:51:01Z</time>
      </trkpt>
      <trkpt lat="47.31323" lon="4.97183">
        <ele>352.367</ele>
        <time>2012-08-28T08:51:12Z</time>
      </trkpt>
      <trkpt lat="47.31323" lon="4.97183">
        <ele>352.37</ele>
        <time>2012-08-28T08:51:23Z</time>
      </trkpt>
      <trkpt lat="47.31323" lon="4.97183">
        <ele>352.231</ele>
        <time>2012-08-28T08:51:34Z</time>
      </trkpt>
      <trkpt lat="47.31322" lon="4.97183">
        <ele>352.48</ele>
        <time>2012-08-28T08:51:45Z</time>
      </trkpt>
      <trkpt lat="47.3132" lon="4.97182">
        <ele>352.8</ele>
        <time>2012-08-28T08:51:56Z</time>
      </trkpt>
      <trkpt lat="47.31315" lon="4.97182">
        <ele>351.364</ele>
        <time>2012-08-28T08:52:07Z</time>
      </trkpt>
      <trkpt lat="47.3131" lon="4.97183">
        <ele>352.209</ele>
        <time>2012-08-28T08:52:18Z</time>
      </trkpt>
      <trkpt lat="47.31298" lon="4.97183">
        <ele>353.187</ele>
        <time>2012-08-28T08:52:29Z</time>
      </trkpt>
      <trkpt lat="47.31295" lon="4.97178">
        <ele>354.52</ele>
        <time>2012-08-28T08:52:40Z</time>
      </trkpt>
      <trkpt lat="47.31292" lon="4.97177">
        <ele>354.338</ele>
        <time>2012-08-28T08:52:51Z</time>
      </trkpt>
      <trkpt lat="47.31278" lon="4.9717">
        <ele>352.18</ele>
        <time>2012-08-28T08:53:02Z</time>
      </trkpt>
      <trkpt lat="47.31272" lon="4.97168">
        <ele>353.092</ele>
        <time>2012-08-28T08:53:13Z</time>
      </trkpt>
      <trkpt lat="47.3127" lon="4.97165">
        <ele>352.977</ele>
        <time>2012-08-28T08:53:24Z</time>
      </trkpt>
      <trkpt lat="47.31258" lon="4.97157">
        <ele>352.926</ele>
        <time>2012-08-28T08:53:35Z</time>
      </trkpt>
      <trkpt lat="47.31245" lon="4.97153">
        <ele>351.768</ele>
        <time>2012-08-28T08:53:46Z</time>
      </trkpt>
      <trkpt lat="47.31233" lon="4.97148">
        <ele>355.688</ele>
        <time>2012-08-28T08:53:57Z</time>
      </trkpt>
      <trkpt lat="47.31227" lon="4.9714">
        <ele>355.79</ele>
        <time>2012-08-28T08:54:08Z</time>
      </trkpt>
      <trkpt lat="47.3122" lon="4.9713">
        <ele>357.686</ele>
        <time>2012-08-28T08:54:19Z</time>
      </trkpt>
      <trkpt lat="47.31213" lon="4.97112">
        <ele>359.152</ele>
        <time>2012-08-28T08:54:30Z</time>
      </trkpt>
      <trkpt lat="47.31207" lon="4.97093">
        <ele>358.912</ele>
        <time>2012-08-28T08:54:41Z</time>
      </trkpt>
      <trkpt lat="47.312" lon="4.9708">
        <ele>358.181</ele>
        <time>2012-08-28T08:54:52Z</time>
      </trkpt>
      <trkpt lat="47.31198" lon="4.97067">
        <ele>353.6</ele>
        <time>2012-08-28T08:55:03Z</time>
      </trkpt>
      <trkpt lat="47.31193" lon="4.97055">
        <ele>356.982</ele>
        <time>2012-08-28T08:55:14Z</time>
      </trkpt>
      <trkpt lat="47.31188" lon="4.97043">
        <ele>356.977</ele>
        <time>2012-08-28T08:55:25Z</time>
      </trkpt>
      <trkpt lat="47.31177" lon="4.97027">
        <ele>358.135</ele>
        <time>2012-08-28T08:55:36Z</time>
      </trkpt>
      <trkpt lat="47.31165" lon="4.97018">
        <ele>356.293</ele>
        <time>2012-08-28T08:55:47Z</time>
      </trkpt>
      <trkpt lat="47.31152" lon="4.97015">
        <ele>355.511</ele>
        <time>2012-08-28T08:55:58Z</time>
      </trkpt>
      <trkpt lat="47.31145" lon="4.97015">
        <ele>353.896</ele>
        <time>2012-08-28T08:56:09Z</time>
      </trkpt>
      <trkpt lat="47.31138" lon="4.97015">
        <ele>353.752</ele>
        <time>2012-08-28T08:56:20Z</time>
      </trkpt>
      <trkpt lat="47.31122" lon="4.9702">
        <ele>353.195</ele>
        <time>2012-08-28T08:56:31Z</time>
      </trkpt>
      <trkpt lat="47.31105" lon="4.97023">
        <ele>357.3</ele>
        <time>2012-08-28T08:56:42Z</time>
      </trkpt>
      <trkpt lat="47.3109" lon="4.97027">
        <ele>352.778</ele>
        <time>2012-08-28T08:56:53Z</time>
      </trkpt>
      <trkpt lat="47.31077" lon="4.9703">
        <ele>353.336</ele>
        <time>2012-08-28T08:57:04Z</time>
      </trkpt>
      <trkpt lat="47.31072" lon="4.9703">
        <ele>352.879</ele>
        <time>2012-08-28T08:57:15Z</time>
      </trkpt>
      <trkpt lat="47.31057" lon="4.97037">
        <ele>353.454</ele>
        <time>2012-08-28T08:57:26Z</time>
      </trkpt>
      <trkpt lat="47.3104" lon="4.9705">
        <ele>351.654</ele>
        <time>2012-08-28T08:57:37Z</time>
      </trkpt>
      <trkpt lat="47.31027" lon="4.9706">
        <ele>354.424</ele>
        <time>2012-08-28T08:57:48Z</time>
      </trkpt>
      <trkpt lat="47.31017" lon="4.97067">
        <ele>354.343</ele>
        <time>2012-08-28T08:57:59Z</time>
      </trkpt>
      <trkpt lat="47.3101" lon="4.97077">
        <ele>352.988</ele>
        <time>2012-08-28T08:58:10Z</time>
      </trkpt>
      <trkpt lat="47.30998" lon="4.97085">
        <ele>347</ele>
        <time>2012-08-28T08:58:21Z</time>
      </trkpt>
      <trkpt lat="47.3099" lon="4.9709">
        <ele>355.422</ele>
        <time>2012-08-28T08:58:32Z</time>
      </trkpt>
      <trkpt lat="47.30975" lon="4.971">
        <ele>359.383</ele>
        <time>2012-08-28T08:58:43Z</time>
      </trkpt>
      <trkpt lat="47.30962" lon="4.97112">
        <ele>360.76</ele>
        <time>2012-08-28T08:58:54Z</time>
      </trkpt>
      <trkpt lat="47.30948" lon="4.97127">
        <ele>358.377</ele>
        <time>2012-08-28T08:59:05Z</time>
      </trkpt>
      <trkpt lat="47.3094" lon="4.97133">
        <ele>356.386</ele>
        <time>2012-08-28T08:59:16Z</time>
      </trkpt>
      <trkpt lat="47.3093" lon="4.97143">
        <ele>355.095</ele>
        <time>2012-08-28T08:59:27Z</time>
      </trkpt>
      <trkpt lat="47.30918" lon="4.97162">
        <ele>352.411</ele>
        <time>2012-08-28T08:59:38Z</time>
      </trkpt>
      <trkpt lat="47.30907" lon="4.97177">
        <ele>350.5</ele>
        <time>2012-08-28T08:59:49Z</time>
      </trkpt>
      <trkpt lat="47.30902" lon="4.97182">
        <ele>349.932</ele>
        <time>2012-08-28T09:00:00Z</time>
      </trkpt>
      <trkpt lat="47.309" lon="4.97183">
        <ele>349.62</ele>
        <time>2012-08-28T09:00:11Z</time>
      </trkpt>
      <trkpt lat="47.309" lon="4.97183">
        <ele>349.676</ele>
        <time>2012-08-28T09:00:22Z</time>
      </trkpt>
      <trkpt lat="47.30898" lon="4.97183">
        <ele>349.508</ele>
        <time>2012-08-28T09:00:33Z</time>
      </trkpt>
      <trkpt lat="47.30898" lon="4.97183">
        <ele>349.05</ele>
        <time>2012-08-28T09:00:44Z</time>
      </trkpt>
      <trkpt lat="47.30898" lon="4.97183">
        <ele>348.919</ele>
        <time>2012-08-28T09:00:55Z</time>
      </trkpt>
      <trkpt lat="47.30898" lon="4.97183">
        <ele>348.909</ele>
        <time>2012-08-28T09:01:06Z</time>
      </trkpt>
      <trkpt lat="47.30898" lon="4.97183">
        <ele>349.067</ele>
        <time>2012-08-28T09:01:17Z</time>
      </trkpt>
      <trkpt lat="47.30898" lon="4.97183">
        <ele>349.409</ele>
        <time>2012-08-28T09:01:28Z</time>
      </trkpt>
      <trkpt lat="47.30897" lon="4.97185">
        <ele>349.022</ele>
        <time>2012-08-28T09:01:39Z</time>
      </trkpt>
      <trkpt lat="47.30897" lon="4.97185">
        <ele>348.61</ele>
        <time>2012-08-28T09:01:50Z</time>
      </trkpt>
      <trkpt lat="47.30893" lon="4.97177">
        <ele>349.273</ele>
        <time>2012-08-28T09:02:01Z</time>
      </trkpt>
      <trkpt lat="47.30895" lon="4.97168">
        <ele>349.523</ele>
        <time>2012-08-28T09:02:12Z</time>
      </trkpt>
      <trkpt lat="47.30895" lon="4.97163">
        <ele>346.3</ele>
        <time>2012-08-28T09:02:23Z</time>
      </trkpt>
      <trkpt lat="47.30892" lon="4.97153">
        <ele>349.747</ele>
        <time>2012-08-28T09:02:34Z</time>
      </trkpt>
      <trkpt lat="47.30887" lon="4.97147">
        <ele>350.838</ele>
        <time>2012-08-28T09:02:45Z</time>
      </trkpt>
      <trkpt lat="47.30877" lon="4.97148">
        <ele>351.787</ele>
        <time>2012-08-28T09:02:56Z</time>
      </trkpt>
      <trkpt lat="47.30875" lon="4.97148">
        <ele>353.071</ele>
        <time>2012-08-28T09:03:07Z</time>
      </trkpt>
      <trkpt lat="47.30883" lon="4.97133">
        <ele>353.541</ele>
        <time>2012-08-28T09:03:18Z</time>
      </trkpt>
      <trkpt lat="47.30885" lon="4.9712">
        <ele>354.802</ele>
        <time>2012-08-28T09:03:29Z</time>
      </trkpt>
      <trkpt lat="47.30888" lon="4.97107">
        <ele>353.731</ele>
        <time>2012-08-28T09:03:40Z</time>
      </trkpt>
      <trkpt lat="47.3089" lon="4.97093">
        <ele>353.733</ele>
        <time>2012-08-28T09:03:51Z</time>
      </trkpt>
      <trkpt lat="47.3089" lon="4.97083">
        <ele>355.944</ele>
        <time>2012-08-28T09:04:02Z</time>
      </trkpt>
      <trkpt lat="47.30883" lon="4.9707">
        <ele>357.263</ele>
        <time>2012-08-28T09:04:13Z</time>
      </trkpt>
      <trkpt lat="47.30875" lon="4.97067">
        <ele>359.475</ele>
        <time>2012-08-28T09:04:24Z</time>
      </trkpt>
      <trkpt lat="47.30863" lon="4.97062">
        <ele>362.356</ele>
        <time>2012-08-28T09:04:35Z</time>
      </trkpt>
      <trkpt lat="47.30852" lon="4.97055">
        <ele>366.466</ele>
        <time>2012-08-28T09:04:46Z</time>
      </trkpt>
      <trkpt lat="47.30843" lon="4.97055">
        <ele>371.489</ele>
        <time>2012-08-28T09:04:57Z</time>
      </trkpt>
      <trkpt lat="47.30828" lon="4.97052">
        <ele>374.895</ele>
        <time>2012-08-28T09:05:08Z</time>
      </trkpt>
      <trkpt lat="47.30818" lon="4.97048">
        <ele>379.226</ele>
        <time>2012-08-28T09:05:19Z</time>
      </trkpt>
      <trkpt lat="47.308" lon="4.97045">
        <ele>385.295</ele>
        <time>2012-08-28T09:05:30Z</time>
      </trkpt>
      <trkpt lat="47.30788" lon="4.97038">
        <ele>347.7</ele>
        <time>2012-08-28T09:05:41Z</time>
      </trkpt>
      <trkpt lat="47.30775" lon="4.97037">
        <ele>386.929</ele>
        <time>2012-08-28T09:05:52Z</time>
      </trkpt>
      <trkpt lat="47.30765" lon="4.97027">
        <ele>388.894</ele>
        <time>2012-08-28T09:06:03Z</time>
      </trkpt>
      <trkpt lat="47.30753" lon="4.97022">
        <ele>386.68</ele>
        <time>2012-08-28T09:06:14Z</time>
      </trkpt>
      <trkpt lat="47.3074" lon="4.97018">
        <ele>383.211</ele>
        <time>2012-08-28T09:06:25Z</time>
      </trkpt>
      <trkpt lat="47.30727" lon="4.97015">
        <ele>382.398</ele>
        <time>2012-08-28T09:06:36Z</time>
      </trkpt>
      <trkpt lat="47.30712" lon="4.97013">
        <ele>382.504</ele>
        <time>2012-08-28T09:06:47Z</time>
      </trkpt>
      <trkpt lat="47.30698" lon="4.9701">
        <ele>383.497</ele>
        <time>2012-08-28T09:06:58Z</time>
      </trkpt>
      <trkpt lat="47.30683" lon="4.9701">
        <ele>382.796</ele>
        <time>2012-08-28T09:07:09Z</time>
      </trkpt>
      <trkpt lat="47.30678" lon="4.97012">
        <ele>381.957</ele>
        <time>2012-08-28T09:07:20Z</time>
      </trkpt>
      <trkpt lat="47.30665" lon="4.97017">
        <ele>382.656</ele>
        <time>2012-08-28T09:07:31Z</time>
      </trkpt>
      <trkpt lat="47.3065" lon="4.9702">
        <ele>381.724</ele>
        <time>2012-08-28T09:07:42Z</time>
      </trkpt>
      <trkpt lat="47.3064" lon="4.97018">
        <ele>381.028</ele>
        <time>2012-08-28T09:07:53Z</time>
      </trkpt>
      <trkpt lat="47.30625" lon="4.97027">
        <ele>383.852</ele>
        <time>2012-08-28T09:08:04Z</time>
      </trkpt>
      <trkpt lat="47.30615" lon="4.97037">
        <ele>383.983</ele>
        <time>2012-08-28T09:08:15Z</time>
      </trkpt>
      <trkpt lat="47.30593" lon="4.97035">
        <ele>384.414</ele>
        <time>2012-08-28T09:08:26Z</time>
      </trkpt>
      <trkpt lat="47.30577" lon="4.97032">
        <ele>386.225</ele>
        <time>2012-08-28T09:08:37Z</time>
      </trkpt>
      <trkpt lat="47.30563" lon="4.97032">
        <ele>386.529</ele>
        <time>2012-08-28T09:08:48Z</time>
      </trkpt>
      <trkpt lat="47.30542" lon="4.97023">
        <ele>387.756</ele>
        <time>2012-08-28T09:08:59Z</time>
      </trkpt>
      <trkpt lat="47.3052" lon="4.97017">
        <ele>383.075</ele>
        <time>2012-08-28T09:09:10Z</time>
      </trkpt>
      <trkpt lat="47.30508" lon="4.97012">
        <ele>381.732</ele>
        <time>2012-08-28T09:09:21Z</time>
      </trkpt>
      <trkpt lat="47.30497" lon="4.97">
        <ele>380.968</ele>
        <time>2012-08-28T09:09:32Z</time>
      </trkpt>
      <trkpt lat="47.30483" lon="4.96985">
        <ele>379.098</ele>
        <time>2012-08-28T09:09:43Z</time>
      </trkpt>
      <trkpt lat="47.3047" lon="4.96968">
        <ele>379.524</ele>
        <time>2012-08-28T09:09:54Z</time>
      </trkpt>
      <trkpt lat="47.30457" lon="4.96962">
        <ele>379.701</ele>
        <time>2012-08-28T09:10:05Z</time>
      </trkpt>
      <trkpt lat="47.30447" lon="4.96953">
        <ele>381.177</ele>
        <time>2012-08-28T09:10:16Z</time>
      </trkpt>
      <trkpt lat="47.30442" lon="4.9695">
        <ele>382.615</ele>
        <time>2012-08-28T09:10:27Z</time>
      </trkpt>
      <trkpt lat="47.3044" lon="4.96942">
        <ele>380.789</ele>
        <time>2012-08-28T09:10:38Z</time>
      </trkpt>
      <trkpt lat="47.30438" lon="4.96933">
        <ele>380.944</ele>
        <time>2012-08-28T09:10:49Z</time>
      </trkpt>
      <trkpt lat="47.30433" lon="4.96925">
        <ele>384.803</ele>
        <time>2012-08-28T09:11:00Z</time>
      </trkpt>
      <trkpt lat="47.3043" lon="4.9692">
        <ele>388.238</ele>
        <time>2012-08-28T09:11:11Z</time>
      </trkpt>
      <trkpt lat="47.30428" lon="4.96918">
        <ele>387.848</ele>
        <time>2012-08-28T09:11:22Z</time>
      </trkpt>
      <trkpt lat="47.30423" lon="4.96917">
        <ele>387.173</ele>
        <time>2012-08-28T09:11:33Z</time>
      </trkpt>
      <trkpt lat="47.30417" lon="4.96917">
        <ele>387.259</ele>
        <time>2012-08-28T09:11:44Z</time>
      </trkpt>
      <trkpt lat="47.30402" lon="4.96917">
        <ele>379.356</ele>
        <time>2012-08-28T09:11:55Z</time>
      </trkpt>
      <trkpt lat="47.30385" lon="4.9691">
        <ele>380.565</ele>
        <time>2012-08-28T09:12:06Z</time>
      </trkpt>
      <trkpt lat="47.30377" lon="4.96892">
        <ele>385.913</ele>
        <time>2012-08-28T09:12:17Z</time>
      </trkpt>
      <trkpt lat="47.3037" lon="4.96878">
        <ele>390.363</ele>
        <time>2012-08-28T09:12:28Z</time>
      </trkpt>
      <trkpt lat="47.30365" lon="4.96873">
        <ele>393.867</ele>
        <time>2012-08-28T09:12:39Z</time>
      </trkpt>
      <trkpt lat="47.30363" lon="4.96862">
        <ele>397.122</ele>
        <time>2012-08-28T09:12:50Z</time>
      </trkpt>
      <trkpt lat="47.30365" lon="4.9685">
        <ele>398.607</ele>
        <time>2012-08-28T09:13:01Z</time>
      </trkpt>
      <trkpt lat="47.30368" lon="4.96833">
        <ele>401.004</ele>
        <time>2012-08-28T09:13:12Z</time>
      </trkpt>
      <trkpt lat="47.30368" lon="4.96823">
        <ele>404.754</ele>
        <time>2012-08-28T09:13:23Z</time>
      </trkpt>
      <trkpt lat="47.30367" lon="4.96817">
        <ele>405.076</ele>
        <time>2012-08-28T09:13:34Z</time>
      </trkpt>
      <trkpt lat="47.30365" lon="4.96807">
        <ele>404.437</ele>
        <time>2012-08-28T09:13:45Z</time>
      </trkpt>
      <trkpt lat="47.30363" lon="4.96792">
        <ele>404.783</ele>
        <time>2012-08-28T09:13:56Z</time>
      </trkpt>
      <trkpt lat="47.30365" lon="4.9678">
        <ele>402.852</ele>
        <time>2012-08-28T09:14:07Z</time>
      </trkpt>
      <trkpt lat="47.30368" lon="4.96763">
        <ele>402.018</ele>
        <time>2012-08-28T09:14:18Z</time>
      </trkpt>
      <trkpt lat="47.30375" lon="4.96738">
        <ele>400.112</ele>
        <time>2012-08-28T09:14:29Z</time>
      </trkpt>
      <trkpt lat="47.30383" lon="4.96718">
        <ele>399.266</ele>
        <time>2012-08-28T09:14:40Z</time>
      </trkpt>
      <trkpt lat="47.30392" lon="4.96698">
        <ele>400.461</ele>
        <time>2012-08-28T09:14:51Z</time>
      </trkpt>
      <trkpt lat="47.30398" lon="4.96685">
        <ele>401.389</ele>
        <time>2012-08-28T09:15:02Z</time>
      </trkpt>
      <trkpt lat="47.30408" lon="4.96668">
        <ele>402.613</ele>
        <time>2012-08-28T09:15:13Z</time>
      </trkpt>
      <trkpt lat="47.30413" lon="4.96668">
        <ele>403.191</ele>
        <time>2012-08-28T09:15:24Z</time>
      </trkpt>
      <trkpt lat="47.3042" lon="4.96658">
        <ele>404.446</ele>
        <time>2012-08-28T09:15:35Z</time>
      </trkpt>
      <trkpt lat="47.30423" lon="4.96652">
        <ele>406.908</ele>
        <time>2012-08-28T09:15:46Z</time>
      </trkpt>
      <trkpt lat="47.3043" lon="4.96632">
        <ele>413</ele>
        <time>2012-08-28T09:15:57Z</time>
      </trkpt>
      <trkpt lat="47.30433" lon="4.96618">
        <ele>407.113</ele>
        <time>2012-08-28T09:16:08Z</time>
      </trkpt>
      <trkpt lat="47.30435" lon="4.96607">
        <ele>409.398</ele>
        <time>2012-08-28T09:16:19Z</time>
      </trkpt>
      <trkpt lat="47.30435" lon="4.96592">
        <ele>412.003</ele>
        <time>2012-08-28T09:16:30Z</time>
      </trkpt>
      <trkpt lat="47.30437" lon="4.96568">
        <ele>414.259</ele>
        <time>2012-08-28T09:16:41Z</time>
      </trkpt>
      <trkpt lat="47.30433" lon="4.96548">
        <ele>413.364</ele>
        <time>2012-08-28T09:16:52Z</time>
      </trkpt>
      <trkpt lat="47.30432" lon="4.96532">
        <ele>413.305</ele>
        <time>2012-08-28T09:17:03Z</time>
      </trkpt>
      <trkpt lat="47.30428" lon="4.96512">
        <ele>414.46</ele>
        <time>2012-08-28T09:17:14Z</time>
      </trkpt>
      <trkpt lat="47.30423" lon="4.96492">
        <ele>415.841</ele>
        <time>2012-08-28T09:17:25Z</time>
      </trkpt>
      <trkpt lat="47.30418" lon="4.96477">
        <ele>417.69</ele>
        <time>2012-08-28T09:17:36Z</time>
      </trkpt>
      <trkpt lat="47.30413" lon="4.96455">
        <ele>421.51</ele>
        <time>2012-08-28T09:17:47Z</time>
      </trkpt>
      <trkpt lat="47.30407" lon="4.9644">
        <ele>424.445</ele>
        <time>2012-08-28T09:17:58Z</time>
      </trkpt>
      <trkpt lat="47.304" lon="4.96423">
        <ele>427.119</ele>
        <time>2012-08-28T09:18:09Z</time>
      </trkpt>
      <trkpt lat="47.30395" lon="4.96407">
        <ele>429.161</ele>
        <time>2012-08-28T09:18:20Z</time>
      </trkpt>
      <trkpt lat="47.30387" lon="4.9639">
        <ele>429.754</ele>
        <time>2012-08-28T09:18:31Z</time>
      </trkpt>
      <trkpt lat="47.3038" lon="4.96375">
        <ele>430.591</ele>
        <time>2012-08-28T09:18:42Z</time>
      </trkpt>
      <trkpt lat="47.30375" lon="4.96357">
        <ele>432.633</ele>
        <time>2012-08-28T09:18:53Z</time>
      </trkpt>
      <trkpt lat="47.30367" lon="4.96342">
        <ele>433.218</ele>
        <time>2012-08-28T09:19:04Z</time>
      </trkpt>
      <trkpt lat="47.30358" lon="4.96323">
        <ele>432.883</ele>
        <time>2012-08-28T09:19:15Z</time>
      </trkpt>
      <trkpt lat="47.30348" lon="4.96305">
        <ele>432.592</ele>
        <time>2012-08-28T09:19:26Z</time>
      </trkpt>
      <trkpt lat="47.3034" lon="4.96287">
        <ele>432.331</ele>
        <time>2012-08-28T09:19:37Z</time>
      </trkpt>
      <trkpt lat="47.30333" lon="4.9627">
        <ele>433.426</ele>
        <time>2012-08-28T09:19:48Z</time>
      </trkpt>
      <trkpt lat="47.30328" lon="4.96255">
        <ele>433.542</ele>
        <time>2012-08-28T09:19:59Z</time>
      </trkpt>
      <trkpt lat="47.30317" lon="4.9624">
        <ele>432.069</ele>
        <time>2012-08-28T09:20:10Z</time>
      </trkpt>
      <trkpt lat="47.3031" lon="4.96225">
        <ele>432.073</ele>
        <time>2012-08-28T09:20:21Z</time>
      </trkpt>
      <trkpt lat="47.30305" lon="4.9621">
        <ele>421.6</ele>
        <time>2012-08-28T09:20:32Z</time>
      </trkpt>
      <trkpt lat="47.30297" lon="4.96198">
        <ele>431.861</ele>
        <time>2012-08-28T09:20:43Z</time>
      </trkpt>
      <trkpt lat="47.30287" lon="4.9619">
        <ele>430.3</ele>
        <time>2012-08-28T09:20:54Z</time>
      </trkpt>
      <trkpt lat="47.30278" lon="4.96182">
        <ele>430.156</ele>
        <time>2012-08-28T09:21:05Z</time>
      </trkpt>
      <trkpt lat="47.30265" lon="4.96172">
        <ele>430.615</ele>
        <time>2012-08-28T09:21:16Z</time>
      </trkpt>
      <trkpt lat="47.3025" lon="4.96158">
        <ele>428.815</ele>
        <time>2012-08-28T09:21:27Z</time>
      </trkpt>
      <trkpt lat="47.30235" lon="4.96147">
        <ele>428.347</ele>
        <time>2012-08-28T09:21:38Z</time>
      </trkpt>
      <trkpt lat="47.3022" lon="4.96135">
        <ele>426.94</ele>
        <time>2012-08-28T09:21:49Z</time>
      </trkpt>
      <trkpt lat="47.30207" lon="4.96125">
        <ele>425.991</ele>
        <time>2012-08-28T09:22:00Z</time>
      </trkpt>
      <trkpt lat="47.30198" lon="4.96117">
        <ele>426.013</ele>
        <time>2012-08-28T09:22:11Z</time>
      </trkpt>
      <trkpt lat="47.30187" lon="4.96107">
        <ele>425.041</ele>
        <time>2012-08-28T09:22:22Z</time>
      </trkpt>
      <trkpt lat="47.30177" lon="4.96097">
        <ele>425.754</ele>
        <time>2012-08-28T09:22:33Z</time>
      </trkpt>
      <trkpt lat="47.30163" lon="4.96085">
        <ele>425.218</ele>
        <time>2012-08-28T09:22:44Z</time>
      </trkpt>
      <trkpt lat="47.30153" lon="4.96075">
        <ele>424.375</ele>
        <time>2012-08-28T09:22:55Z</time>
      </trkpt>
      <trkpt lat="47.30142" lon="4.96063">
        <ele>423.539</ele>
        <time>2012-08-28T09:23:06Z</time>
      </trkpt>
      <trkpt lat="47.3013" lon="4.96052">
        <ele>422.689</ele>
        <time>2012-08-28T09:23:17Z</time>
      </trkpt>
      <trkpt lat="47.30118" lon="4.96042">
        <ele>421.954</ele>
        <time>2012-08-28T09:23:28Z</time>
      </trkpt>
      <trkpt lat="47.30105" lon="4.9603">
        <ele>421.95</ele>
        <time>2012-08-28T09:23:39Z</time>
      </trkpt>
      <trkpt lat="47.30097" lon="4.96023">
        <ele>422.407</ele>
        <time>2012-08-28T09:23:50Z</time>
      </trkpt>
      <trkpt lat="47.30083" lon="4.96018">
        <ele>421.103</ele>
        <time>2012-08-28T09:24:01Z</time>
      </trkpt>
      <trkpt lat="47.30075" lon="4.96002">
        <ele>422.207</ele>
        <time>2012-08-28T09:24:12Z</time>
      </trkpt>
      <trkpt lat="47.30067" lon="4.95983">
        <ele>422.431</ele>
        <time>2012-08-28T09:24:23Z</time>
      </trkpt>
      <trkpt lat="47.30058" lon="4.95967">
        <ele>422.118</ele>
        <time>2012-08-28T09:24:34Z</time>
      </trkpt>
      <trkpt lat="47.30048" lon="4.95955">
        <ele>423.255</ele>
        <time>2012-08-28T09:24:45Z</time>
      </trkpt>
      <trkpt lat="47.30043" lon="4.95972">
        <ele>423.608</ele>
        <time>2012-08-28T09:24:56Z</time>
      </trkpt>
      <trkpt lat="47.30037" lon="4.95987">
        <ele>423.031</ele>
        <time>2012-08-28T09:25:07Z</time>
      </trkpt>
      <trkpt lat="47.30028" lon="4.96007">
        <ele>420.864</ele>
        <time>2012-08-28T09:25:18Z</time>
      </trkpt>
      <trkpt lat="47.30023" lon="4.96027">
        <ele>419.178</ele>
        <time>2012-08-28T09:25:29Z</time>
      </trkpt>
      <trkpt lat="47.30018" lon="4.96047">
        <ele>417.856</ele>
        <time>2012-08-28T09:25:40Z</time>
      </trkpt>
      <trkpt lat="47.30015" lon="4.96067">
        <ele>416.956</ele>
        <time>2012-08-28T09:25:51Z</time>
      </trkpt>
      <trkpt lat="47.30013" lon="4.96087">
        <ele>417.266</ele>
        <time>2012-08-28T09:26:02Z</time>
      </trkpt>
      <trkpt lat="47.30013" lon="4.96107">
        <ele>416.455</ele>
        <time>2012-08-28T09:26:13Z</time>
      </trkpt>
      <trkpt lat="47.30013" lon="4.96127">
        <ele>415.155</ele>
        <time>2012-08-28T09:26:24Z</time>
      </trkpt>
      <trkpt lat="47.3001" lon="4.96147">
        <ele>413.212</ele>
        <time>2012-08-28T09:26:35Z</time>
      </trkpt>
      <trkpt lat="47.30008" lon="4.96165">
        <ele>410.941</ele>
        <time>2012-08-28T09:26:46Z</time>
      </trkpt>
      <trkpt lat="47.30005" lon="4.9618">
        <ele>410.994</ele>
        <time>2012-08-28T09:26:57Z</time>
      </trkpt>
      <trkpt lat="47.30002" lon="4.96197">
        <ele>411.376</ele>
        <time>2012-08-28T09:27:08Z</time>
      </trkpt>
      <trkpt lat="47.29998" lon="4.96212">
        <ele>412.142</ele>
        <time>2012-08-28T09:27:19Z</time>
      </trkpt>
      <trkpt lat="47.29995" lon="4.96218">
        <ele>412.546</ele>
        <time>2012-08-28T09:27:30Z</time>
      </trkpt>
      <trkpt lat="47.29992" lon="4.9623">
        <ele>415.808</ele>
        <time>2012-08-28T09:27:41Z</time>
      </trkpt>
      <trkpt lat="47.2999" lon="4.96238">
        <ele>415.609</ele>
        <time>2012-08-28T09:27:52Z</time>
      </trkpt>
      <trkpt lat="47.29988" lon="4.96247">
        <ele>416.604</ele>
        <time>2012-08-28T09:28:03Z</time>
      </trkpt>
      <trkpt lat="47.29983" lon="4.96262">
        <ele>418.648</ele>
        <time>2012-08-28T09:28:14Z</time>
      </trkpt>
      <trkpt lat="47.29982" lon="4.9627">
        <ele>418.545</ele>
        <time>2012-08-28T09:28:25Z</time>
      </trkpt>
      <trkpt lat="47.2998" lon="4.96283">
        <ele>419.073</ele>
        <time>2012-08-28T09:28:36Z</time>
      </trkpt>
      <trkpt lat="47.29978" lon="4.963">
        <ele>419.788</ele>
        <time>2012-08-28T09:28:47Z</time>
      </trkpt>
      <trkpt lat="47.29978" lon="4.96317">
        <ele>422.252</ele>
        <time>2012-08-28T09:28:58Z</time>
      </trkpt>
      <trkpt lat="47.29975" lon="4.96335">
        <ele>425.495</ele>
        <time>2012-08-28T09:29:09Z</time>
      </trkpt>
      <trkpt lat="47.2997" lon="4.96358">
        <ele>428.432</ele>
        <time>2012-08-28T09:29:20Z</time>
      </trkpt>
      <trkpt lat="47.29967" lon="4.96372">
        <ele>429.145</ele>
        <time>2012-08-28T09:29:31Z</time>
      </trkpt>
      <trkpt lat="47.29965" lon="4.96388">
        <ele>426.994</ele>
        <time>2012-08-28T09:29:42Z</time>
      </trkpt>
      <trkpt lat="47.29965" lon="4.96402">
        <ele>427.538</ele>
        <time>2012-08-28T09:29:53Z</time>
      </trkpt>
      <trkpt lat="47.29967" lon="4.96417">
        <ele>429.922</ele>
        <time>2012-08-28T09:30:04Z</time>
      </trkpt>
      <trkpt lat="47.29963" lon="4.96437">
        <ele>429.918</ele>
        <time>2012-08-28T09:30:15Z</time>
      </trkpt>
      <trkpt lat="47.29963" lon="4.96452">
        <ele>429.352</ele>
        <time>2012-08-28T09:30:26Z</time>
      </trkpt>
      <trkpt lat="47.2996" lon="4.96468">
        <ele>430.434</ele>
        <time>2012-08-28T09:30:37Z</time>
      </trkpt>
      <trkpt lat="47.29953" lon="4.96507">
        <ele>430.452</ele>
        <time>2012-08-28T09:30:48Z</time>
      </trkpt>
      <trkpt lat="47.29957" lon="4.96545">
        <ele>426.896</ele>
        <time>2012-08-28T09:30:59Z</time>
      </trkpt>
      <trkpt lat="47.29963" lon="4.96583">
        <ele>417.226</ele>
        <time>2012-08-28T09:31:10Z</time>
      </trkpt>
      <trkpt lat="47.29965" lon="4.96613">
        <ele>409.692</ele>
        <time>2012-08-28T09:31:21Z</time>
      </trkpt>
      <trkpt lat="47.29957" lon="4.96647">
        <ele>405.604</ele>
        <time>2012-08-28T09:31:32Z</time>
      </trkpt>
      <trkpt lat="47.29948" lon="4.96675">
        <ele>403.074</ele>
        <time>2012-08-28T09:31:43Z</time>
      </trkpt>
      <trkpt lat="47.29938" lon="4.96698">
        <ele>401.424</ele>
        <time>2012-08-28T09:31:54Z</time>
      </trkpt>
      <trkpt lat="47.29928" lon="4.96722">
        <ele>399.994</ele>
        <time>2012-08-28T09:32:05Z</time>
      </trkpt>
      <trkpt lat="47.29917" lon="4.96742">
        <ele>398.733</ele>
        <time>2012-08-28T09:32:16Z</time>
      </trkpt>
      <trkpt lat="47.29908" lon="4.96762">
        <ele>395.527</ele>
        <time>2012-08-28T09:32:27Z</time>
      </trkpt>
      <trkpt lat="47.299" lon="4.96782">
        <ele>391.009</ele>
        <time>2012-08-28T09:32:38Z</time>
      </trkpt>
      <trkpt lat="47.29892" lon="4.96802">
        <ele>389.388</ele>
        <time>2012-08-28T09:32:49Z</time>
      </trkpt>
      <trkpt lat="47.29887" lon="4.96822">
        <ele>389.332</ele>
        <time>2012-08-28T09:33:00Z</time>
      </trkpt>
      <trkpt lat="47.29882" lon="4.96835">
        <ele>388.417</ele>
        <time>2012-08-28T09:33:11Z</time>
      </trkpt>
      <trkpt lat="47.29878" lon="4.96857">
        <ele>388.796</ele>
        <time>2012-08-28T09:33:22Z</time>
      </trkpt>
      <trkpt lat="47.2987" lon="4.96877">
        <ele>386.876</ele>
        <time>2012-08-28T09:33:33Z</time>
      </trkpt>
      <trkpt lat="47.29863" lon="4.96897">
        <ele>385.781</ele>
        <time>2012-08-28T09:33:44Z</time>
      </trkpt>
      <trkpt lat="47.29857" lon="4.96918">
        <ele>384.572</ele>
        <time>2012-08-28T09:33:55Z</time>
      </trkpt>
      <trkpt lat="47.29853" lon="4.96938">
        <ele>382.218</ele>
        <time>2012-08-28T09:34:06Z</time>
      </trkpt>
      <trkpt lat="47.29848" lon="4.96955">
        <ele>386.6</ele>
        <time>2012-08-28T09:34:17Z</time>
      </trkpt>
      <trkpt lat="47.29843" lon="4.96977">
        <ele>380.138</ele>
        <time>2012-08-28T09:34:28Z</time>
      </trkpt>
      <trkpt lat="47.29838" lon="4.96998">
        <ele>378.548</ele>
        <time>2012-08-28T09:34:39Z</time>
      </trkpt>
      <trkpt lat="47.29835" lon="4.97018">
        <ele>376.076</ele>
        <time>2012-08-28T09:34:50Z</time>
      </trkpt>
      <trkpt lat="47.29833" lon="4.97042">
        <ele>373.913</ele>
        <time>2012-08-28T09:35:01Z</time>
      </trkpt>
      <trkpt lat="47.29833" lon="4.97063">
        <ele>368.971</ele>
        <time>2012-08-28T09:35:12Z</time>
      </trkpt>
      <trkpt lat="47.29835" lon="4.97083">
        <ele>369.724</ele>
        <time>2012-08-28T09:35:23Z</time>
      </trkpt>
      <trkpt lat="47.29837" lon="4.97102">
        <ele>363.111</ele>
        <time>2012-08-28T09:35:34Z</time>
      </trkpt>
      <trkpt lat="47.29838" lon="4.97122">
        <ele>363.97</ele>
        <time>2012-08-28T09:35:45Z</time>
      </trkpt>
      <trkpt lat="47.2984" lon="4.97138">
        <ele>364.21</ele>
        <time>2012-08-28T09:35:56Z</time>
      </trkpt>
      <trkpt lat="47.2984" lon="4.97157">
        <ele>366.511</ele>
        <time>2012-08-28T09:36:07Z</time>
      </trkpt>
      <trkpt lat="47.29833" lon="4.97167">
        <ele>371.32</ele>
        <time>2012-08-28T09:36:18Z</time>
      </trkpt>
      <trkpt lat="47.29825" lon="4.97178">
        <ele>375.287</ele>
        <time>2012-08-28T09:36:29Z</time>
      </trkpt>
      <trkpt lat="47.29812" lon="4.97183">
        <ele>376.85</ele>
        <time>2012-08-28T09:36:40Z</time>
      </trkpt>
      <trkpt lat="47.29802" lon="4.97187">
        <ele>377.685</ele>
        <time>2012-08-28T09:36:51Z</time>
      </trkpt>
      <trkpt lat="47.29787" lon="4.97193">
        <ele>390</ele>
        <time>2012-08-28T09:37:02Z</time>
      </trkpt>
      <trkpt lat="47.29773" lon="4.9719">
        <ele>379.684</ele>
        <time>2012-08-28T09:37:13Z</time>
      </trkpt>
      <trkpt lat="47.2976" lon="4.97185">
        <ele>379.798</ele>
        <time>2012-08-28T09:37:24Z</time>
      </trkpt>
      <trkpt lat="47.29745" lon="4.9718">
        <ele>380.848</ele>
        <time>2012-08-28T09:37:35Z</time>
      </trkpt>
      <trkpt lat="47.29732" lon="4.97182">
        <ele>381.368</ele>
        <time>2012-08-28T09:37:46Z</time>
      </trkpt>
      <trkpt lat="47.29717" lon="4.97187">
        <ele>382.196</ele>
        <time>2012-08-28T09:37:57Z</time>
      </trkpt>
      <trkpt lat="47.29703" lon="4.97193">
        <ele>382.301</ele>
        <time>2012-08-28T09:38:08Z</time>
      </trkpt>
      <trkpt lat="47.2969" lon="4.97198">
        <ele>383.788</ele>
        <time>2012-08-28T09:38:19Z</time>
      </trkpt>
      <trkpt lat="47.29678" lon="4.97208">
        <ele>384.153</ele>
        <time>2012-08-28T09:38:30Z</time>
      </trkpt>
      <trkpt lat="47.29678" lon="4.97208">
        <ele>384.569</ele>
        <time>2012-08-28T09:38:41Z</time>
      </trkpt>
      <trkpt lat="47.29678" lon="4.97208">
        <ele>384.569</ele>
        <time>2012-08-28T09:38:52Z</time>
      </trkpt>
      <trkpt lat="47.29673" lon="4.97198">
        <ele>384.99</ele>
        <time>2012-08-28T09:39:03Z</time>
      </trkpt>
      <trkpt lat="47.29663" lon="4.97187">
        <ele>385.038</ele>
        <time>2012-08-28T09:39:14Z</time>
      </trkpt>
      <trkpt lat="47.29652" lon="4.97185">
        <ele>385.74</ele>
        <time>2012-08-28T09:39:25Z</time>
      </trkpt>
      <trkpt lat="47.29643" lon="4.9717">
        <ele>386.666</ele>
        <time>2012-08-28T09:39:36Z</time>
      </trkpt>
      <trkpt lat="47.29637" lon="4.97157">
        <ele>386.098</ele>
        <time>2012-08-28T09:39:47Z</time>
      </trkpt>
      <trkpt lat="47.29633" lon="4.97145">
        <ele>387.686</ele>
        <time>2012-08-28T09:39:58Z</time>
      </trkpt>
      <trkpt lat="47.29627" lon="4.97133">
        <ele>388.577</ele>
        <time>2012-08-28T09:40:09Z</time>
      </trkpt>
      <trkpt lat="47.29615" lon="4.97128">
        <ele>390.212</ele>
        <time>2012-08-28T09:40:20Z</time>
      </trkpt>
      <trkpt lat="47.29605" lon="4.97122">
        <ele>389.59</ele>
        <time>2012-08-28T09:40:31Z</time>
      </trkpt>
      <trkpt lat="47.29602" lon="4.97117">
        <ele>388.044</ele>
        <time>2012-08-28T09:40:42Z</time>
      </trkpt>
      <trkpt lat="47.2959" lon="4.97105">
        <ele>388.547</ele>
        <time>2012-08-28T09:40:53Z</time>
      </trkpt>
      <trkpt lat="47.29573" lon="4.97105">
        <ele>386.713</ele>
        <time>2012-08-28T09:41:04Z</time>
      </trkpt>
      <trkpt lat="47.2956" lon="4.971">
        <ele>387.294</ele>
        <time>2012-08-28T09:41:15Z</time>
      </trkpt>
      <trkpt lat="47.29543" lon="4.97103">
        <ele>387.471</ele>
        <time>2012-08-28T09:41:26Z</time>
      </trkpt>
      <trkpt lat="47.29533" lon="4.97112">
        <ele>387.064</ele>
        <time>2012-08-28T09:41:37Z</time>
      </trkpt>
      <trkpt lat="47.29522" lon="4.9712">
        <ele>388.072</ele>
        <time>2012-08-28T09:41:48Z</time>
      </trkpt>
      <trkpt lat="47.2951" lon="4.97132">
        <ele>390.535</ele>
        <time>2012-08-28T09:41:59Z</time>
      </trkpt>
      <trkpt lat="47.29498" lon="4.97143">
        <ele>389.54</ele>
        <time>2012-08-28T09:42:10Z</time>
      </trkpt>
      <trkpt lat="47.29495" lon="4.97153">
        <ele>390.448</ele>
        <time>2012-08-28T09:42:21Z</time>
      </trkpt>
      <trkpt lat="47.29488" lon="4.97163">
        <ele>390.938</ele>
        <time>2012-08-28T09:42:32Z</time>
      </trkpt>
      <trkpt lat="47.29478" lon="4.97175">
        <ele>382.2</ele>
        <time>2012-08-28T09:42:43Z</time>
      </trkpt>
      <trkpt lat="47.29465" lon="4.97192">
        <ele>394.234</ele>
        <time>2012-08-28T09:42:54Z</time>
      </trkpt>
      <trkpt lat="47.29458" lon="4.97198">
        <ele>395.478</ele>
        <time>2012-08-28T09:43:05Z</time>
      </trkpt>
      <trkpt lat="47.29453" lon="4.97212">
        <ele>396.441</ele>
        <time>2012-08-28T09:43:16Z</time>
      </trkpt>
      <trkpt lat="47.29442" lon="4.97225">
        <ele>399.151</ele>
        <time>2012-08-28T09:43:27Z</time>
      </trkpt>
      <trkpt lat="47.2943" lon="4.97235">
        <ele>401.329</ele>
        <time>2012-08-28T09:43:38Z</time>
      </trkpt>
      <trkpt lat="47.29415" lon="4.97248">
        <ele>403.367</ele>
        <time>2012-08-28T09:43:49Z</time>
      </trkpt>
      <trkpt lat="47.29405" lon="4.97268">
        <ele>402.606</ele>
        <time>2012-08-28T09:44:00Z</time>
      </trkpt>
      <trkpt lat="47.29392" lon="4.97277">
        <ele>404.248</ele>
        <time>2012-08-28T09:44:11Z</time>
      </trkpt>
      <trkpt lat="47.2938" lon="4.97288">
        <ele>402.672</ele>
        <time>2012-08-28T09:44:22Z</time>
      </trkpt>
      <trkpt lat="47.29367" lon="4.97307">
        <ele>401.955</ele>
        <time>2012-08-28T09:44:33Z</time>
      </trkpt>
      <trkpt lat="47.29357" lon="4.9732">
        <ele>400.844</ele>
        <time>2012-08-28T09:44:44Z</time>
      </trkpt>
      <trkpt lat="47.29345" lon="4.9734">
        <ele>400.043</ele>
        <time>2012-08-28T09:44:55Z</time>
      </trkpt>
      <trkpt lat="47.29335" lon="4.97357">
        <ele>399.124</ele>
        <time>2012-08-28T09:45:06Z</time>
      </trkpt>
      <trkpt lat="47.29327" lon="4.9737">
        <ele>399.081</ele>
        <time>2012-08-28T09:45:17Z</time>
      </trkpt>
      <trkpt lat="47.29318" lon="4.97382">
        <ele>399.526</ele>
        <time>2012-08-28T09:45:28Z</time>
      </trkpt>
      <trkpt lat="47.29307" lon="4.97395">
        <ele>401.098</ele>
        <time>2012-08-28T09:45:39Z</time>
      </trkpt>
      <trkpt lat="47.29297" lon="4.97412">
        <ele>402.455</ele>
        <time>2012-08-28T09:45:50Z</time>
      </trkpt>
      <trkpt lat="47.29285" lon="4.97425">
        <ele>402.947</ele>
        <time>2012-08-28T09:46:01Z</time>
      </trkpt>
      <trkpt lat="47.29277" lon="4.9744">
        <ele>403.886</ele>
        <time>2012-08-28T09:46:12Z</time>
      </trkpt>
      <trkpt lat="47.29267" lon="4.97455">
        <ele>406.143</ele>
        <time>2012-08-28T09:46:23Z</time>
      </trkpt>
      <trkpt lat="47.29257" lon="4.97475">
        <ele>404.857</ele>
        <time>2012-08-28T09:46:34Z</time>
      </trkpt>
      <trkpt lat="47.2925" lon="4.97497">
        <ele>404.176</ele>
        <time>2012-08-28T09:46:45Z</time>
      </trkpt>
      <trkpt lat="47.29245" lon="4.97515">
        <ele>402.202</ele>
        <time>2012-08-28T09:46:56Z</time>
      </trkpt>
      <trkpt lat="47.29245" lon="4.97515">
        <ele>401.842</ele>
        <time>2012-08-28T09:47:07Z</time>
      </trkpt>
      <trkpt lat="47.29245" lon="4.97515">
        <ele>401.273</ele>
        <time>2012-08-28T09:47:18Z</time>
      </trkpt>
      <trkpt lat="47.29245" lon="4.97515">
        <ele>399.893</ele>
        <time>2012-08-28T09:47:29Z</time>
      </trkpt>
      <trkpt lat="47.29245" lon="4.97515">
        <ele>399.424</ele>
        <time>2012-08-28T09:47:40Z</time>
      </trkpt>
      <trkpt lat="47.29245" lon="4.97515">
        <ele>399.424</ele>
        <time>2012-08-28T09:47:51Z</time>
      </trkpt>
      <trkpt lat="47.29245" lon="4.97518">
        <ele>398.594</ele>
        <time>2012-08-28T09:48:02Z</time>
      </trkpt>
      <trkpt lat="47.29242" lon="4.97532">
        <ele>396.817</ele>
        <time>2012-08-28T09:48:13Z</time>
      </trkpt>
      <trkpt lat="47.2924" lon="4.97553">
        <ele>394.967</ele>
        <time>2012-08-28T09:48:24Z</time>
      </trkpt>
      <trkpt lat="47.29242" lon="4.97577">
        <ele>393.257</ele>
        <time>2012-08-28T09:48:35Z</time>
      </trkpt>
      <trkpt lat="47.29243" lon="4.97598">
        <ele>393.603</ele>
        <time>2012-08-28T09:48:46Z</time>
      </trkpt>
      <trkpt lat="47.29247" lon="4.97622">
        <ele>393.737</ele>
        <time>2012-08-28T09:48:57Z</time>
      </trkpt>
      <trkpt lat="47.29252" lon="4.97642">
        <ele>394.55</ele>
        <time>2012-08-28T09:49:08Z</time>
      </trkpt>
      <trkpt lat="47.29257" lon="4.97658">
        <ele>392.354</ele>
        <time>2012-08-28T09:49:19Z</time>
      </trkpt>
      <trkpt lat="47.29267" lon="4.97677">
        <ele>390.954</ele>
        <time>2012-08-28T09:49:30Z</time>
      </trkpt>
      <trkpt lat="47.29275" lon="4.97692">
        <ele>388.697</ele>
        <time>2012-08-28T09:49:41Z</time>
      </trkpt>
      <trkpt lat="47.29285" lon="4.97708">
        <ele>386.183</ele>
        <time>2012-08-28T09:49:52Z</time>
      </trkpt>
      <trkpt lat="47.29295" lon="4.97722">
        <ele>385.615</ele>
        <time>2012-08-28T09:50:03Z</time>
      </trkpt>
      <trkpt lat="47.29302" lon="4.97732">
        <ele>378.2</ele>
        <time>2012-08-28T09:50:14Z</time>
      </trkpt>
      <trkpt lat="47.29307" lon="4.97747">
        <ele>382.705</ele>
        <time>2012-08-28T09:50:25Z</time>
      </trkpt>
      <trkpt lat="47.29313" lon="4.97757">
        <ele>383.343</ele>
        <time>2012-08-28T09:50:36Z</time>
      </trkpt>
      <trkpt lat="47.29313" lon="4.97762">
        <ele>383.577</ele>
        <time>2012-08-28T09:50:47Z</time>
      </trkpt>
      <trkpt lat="47.29317" lon="4.9777">
        <ele>385.027</ele>
        <time>2012-08-28T09:50:58Z</time>
      </trkpt>
      <trkpt lat="47.29317" lon="4.97775">
        <ele>384.503</ele>
        <time>2012-08-28T09:51:09Z</time>
      </trkpt>
      <trkpt lat="47.29313" lon="4.9779">
        <ele>386.193</ele>
        <time>2012-08-28T09:51:20Z</time>
      </trkpt>
      <trkpt lat="47.29308" lon="4.9781">
        <ele>386.495</ele>
        <time>2012-08-28T09:51:31Z</time>
      </trkpt>
      <trkpt lat="47.29308" lon="4.97823">
        <ele>387.738</ele>
        <time>2012-08-28T09:51:42Z</time>
      </trkpt>
      <trkpt lat="47.293" lon="4.9784">
        <ele>389.248</ele>
        <time>2012-08-28T09:51:53Z</time>
      </trkpt>
      <trkpt lat="47.2929" lon="4.97848">
        <ele>391.06</ele>
        <time>2012-08-28T09:52:04Z</time>
      </trkpt>
      <trkpt lat="47.2929" lon="4.97848">
        <ele>391.335</ele>
        <time>2012-08-28T09:52:15Z</time>
      </trkpt>
      <trkpt lat="47.2929" lon="4.97848">
        <ele>380.8</ele>
        <time>2012-08-28T09:52:26Z</time>
      </trkpt>
      <trkpt lat="47.2929" lon="4.97848">
        <ele>380.8</ele>
        <time>2012-08-28T09:52:37Z</time>
      </trkpt>
      <trkpt lat="47.2929" lon="4.9785">
        <ele>391.15</ele>
        <time>2012-08-28T09:52:48Z</time>
      </trkpt>
      <trkpt lat="47.2929" lon="4.9785">
        <ele>391.15</ele>
        <time>2012-08-28T09:52:59Z</time>
      </trkpt>
      <trkpt lat="47.2929" lon="4.97848">
        <ele>391.066</ele>
        <time>2012-08-28T09:53:10Z</time>
      </trkpt>
      <trkpt lat="47.29285" lon="4.97842">
        <ele>392.203</ele>
        <time>2012-08-28T09:53:21Z</time>
      </trkpt>
      <trkpt lat="47.29275" lon="4.97837">
        <ele>395.186</ele>
        <time>2012-08-28T09:53:32Z</time>
      </trkpt>
      <trkpt lat="47.29265" lon="4.97837">
        <ele>395.774</ele>
        <time>2012-08-28T09:53:43Z</time>
      </trkpt>
      <trkpt lat="47.29252" lon="4.97838">
        <ele>394.074</ele>
        <time>2012-08-28T09:53:54Z</time>
      </trkpt>
      <trkpt lat="47.2924" lon="4.97835">
        <ele>392.208</ele>
        <time>2012-08-28T09:54:05Z</time>
      </trkpt>
      <trkpt lat="47.29223" lon="4.97833">
        <ele>390.567</ele>
        <time>2012-08-28T09:54:16Z</time>
      </trkpt>
      <trkpt lat="47.29208" lon="4.97833">
        <ele>390.881</ele>
        <time>2012-08-28T09:54:27Z</time>
      </trkpt>
      <trkpt lat="47.29193" lon="4.97835">
        <ele>389.991</ele>
        <time>2012-08-28T09:54:38Z</time>
      </trkpt>
      <trkpt lat="47.29178" lon="4.97842">
        <ele>389.567</ele>
        <time>2012-08-28T09:54:49Z</time>
      </trkpt>
      <trkpt lat="47.29168" lon="4.97857">
        <ele>388.177</ele>
        <time>2012-08-28T09:55:00Z</time>
      </trkpt>
      <trkpt lat="47.29162" lon="4.97873">
        <ele>385.69</ele>
        <time>2012-08-28T09:55:11Z</time>
      </trkpt>
      <trkpt lat="47.29165" lon="4.9789">
        <ele>376.6</ele>
        <time>2012-08-28T09:55:22Z</time>
      </trkpt>
      <trkpt lat="47.29172" lon="4.9791">
        <ele>384.87</ele>
        <time>2012-08-28T09:55:33Z</time>
      </trkpt>
      <trkpt lat="47.29178" lon="4.97923">
        <ele>376</ele>
        <time>2012-08-28T09:55:44Z</time>
      </trkpt>
      <trkpt lat="47.29187" lon="4.97942">
        <ele>384.01</ele>
        <time>2012-08-28T09:55:55Z</time>
      </trkpt>
      <trkpt lat="47.29193" lon="4.97957">
        <ele>383.514</ele>
        <time>2012-08-28T09:56:06Z</time>
      </trkpt>
      <trkpt lat="47.292" lon="4.9797">
        <ele>384.208</ele>
        <time>2012-08-28T09:56:17Z</time>
      </trkpt>
      <trkpt lat="47.29202" lon="4.9798">
        <ele>384.584</ele>
        <time>2012-08-28T09:56:28Z</time>
      </trkpt>
      <trkpt lat="47.29213" lon="4.97993">
        <ele>383.443</ele>
        <time>2012-08-28T09:56:39Z</time>
      </trkpt>
      <trkpt lat="47.29223" lon="4.9801">
        <ele>384.049</ele>
        <time>2012-08-28T09:56:50Z</time>
      </trkpt>
      <trkpt lat="47.29233" lon="4.98025">
        <ele>373</ele>
        <time>2012-08-28T09:57:01Z</time>
      </trkpt>
      <trkpt lat="47.29233" lon="4.98025">
        <ele>373</ele>
        <time>2012-08-28T09:57:12Z</time>
      </trkpt>
      <trkpt lat="47.29235" lon="4.98027">
        <ele>373.3</ele>
        <time>2012-08-28T09:57:23Z</time>
      </trkpt>
      <trkpt lat="47.29235" lon="4.98027">
        <ele>383.082</ele>
        <time>2012-08-28T09:57:34Z</time>
      </trkpt>
      <trkpt lat="47.29235" lon="4.98027">
        <ele>383.082</ele>
        <time>2012-08-28T09:57:45Z</time>
      </trkpt>
      <trkpt lat="47.29242" lon="4.98035">
        <ele>382.579</ele>
        <time>2012-08-28T09:57:56Z</time>
      </trkpt>
      <trkpt lat="47.29252" lon="4.98052">
        <ele>382.587</ele>
        <time>2012-08-28T09:58:07Z</time>
      </trkpt>
      <trkpt lat="47.29253" lon="4.98063">
        <ele>380.779</ele>
        <time>2012-08-28T09:58:18Z</time>
      </trkpt>
      <trkpt lat="47.29252" lon="4.98072">
        <ele>369.4</ele>
        <time>2012-08-28T09:58:29Z</time>
      </trkpt>
      <trkpt lat="47.2925" lon="4.98088">
        <ele>376.201</ele>
        <time>2012-08-28T09:58:40Z</time>
      </trkpt>
      <trkpt lat="47.29245" lon="4.98105">
        <ele>375.986</ele>
        <time>2012-08-28T09:58:51Z</time>
      </trkpt>
      <trkpt lat="47.29238" lon="4.98122">
        <ele>377.859</ele>
        <time>2012-08-28T09:59:02Z</time>
      </trkpt>
      <trkpt lat="47.29232" lon="4.98133">
        <ele>381.091</ele>
        <time>2012-08-28T09:59:13Z</time>
      </trkpt>
      <trkpt lat="47.29222" lon="4.98147">
        <ele>380.819</ele>
        <time>2012-08-28T09:59:24Z</time>
      </trkpt>
      <trkpt lat="47.29212" lon="4.98157">
        <ele>381.684</ele>
        <time>2012-08-28T09:59:35Z</time>
      </trkpt>
      <trkpt lat="47.29202" lon="4.9816">
        <ele>382.865</ele>
        <time>2012-08-28T09:59:46Z</time>
      </trkpt>
      <trkpt lat="47.29192" lon="4.98167">
        <ele>382.284</ele>
        <time>2012-08-28T09:59:57Z</time>
      </trkpt>
      <trkpt lat="47.29182" lon="4.9817">
        <ele>381.653</ele>
        <time>2012-08-28T10:00:08Z</time>
      </trkpt>
      <trkpt lat="47.2917" lon="4.9817">
        <ele>382.516</ele>
        <time>2012-08-28T10:00:19Z</time>
      </trkpt>
      <trkpt lat="47.29157" lon="4.98168">
        <ele>382.983</ele>
        <time>2012-08-28T10:00:30Z</time>
      </trkpt>
      <trkpt lat="47.29145" lon="4.98172">
        <ele>383.946</ele>
        <time>2012-08-28T10:00:41Z</time>
      </trkpt>
      <trkpt lat="47.29135" lon="4.98168">
        <ele>385.037</ele>
        <time>2012-08-28T10:00:52Z</time>
      </trkpt>
      <trkpt lat="47.29133" lon="4.98168">
        <ele>386.959</ele>
        <time>2012-08-28T10:01:03Z</time>
      </trkpt>
      <trkpt lat="47.29125" lon="4.98172">
        <ele>387.775</ele>
        <time>2012-08-28T10:01:14Z</time>
      </trkpt>
      <trkpt lat="47.29118" lon="4.98177">
        <ele>387.665</ele>
        <time>2012-08-28T10:01:25Z</time>
      </trkpt>
      <trkpt lat="47.29112" lon="4.9818">
        <ele>374.9</ele>
        <time>2012-08-28T10:01:36Z</time>
      </trkpt>
      <trkpt lat="47.29102" lon="4.98177">
        <ele>389.915</ele>
        <time>2012-08-28T10:01:47Z</time>
      </trkpt>
      <trkpt lat="47.29085" lon="4.98182">
        <ele>392.272</ele>
        <time>2012-08-28T10:01:59Z</time>
      </trkpt>
      <trkpt lat="47.29078" lon="4.98182">
        <ele>393.411</ele>
        <time>2012-08-28T10:02:10Z</time>
      </trkpt>
      <trkpt lat="47.29078" lon="4.98182">
        <ele>393.411</ele>
        <time>2012-08-28T10:02:21Z</time>
      </trkpt>
      <trkpt lat="47.29078" lon="4.98182">
        <ele>393.411</ele>
        <time>2012-08-28T10:02:32Z</time>
      </trkpt>
      <trkpt lat="47.29078" lon="4.98182">
        <ele>393.411</ele>
        <time>2012-08-28T10:02:43Z</time>
      </trkpt>
      <trkpt lat="47.29078" lon="4.98182">
        <ele>393.411</ele>
        <time>2012-08-28T10:02:54Z</time>
      </trkpt>
      <trkpt lat="47.29078" lon="4.98182">
        <ele>393.411</ele>
        <time>2012-08-28T10:03:05Z</time>
      </trkpt>
      <trkpt lat="47.29078" lon="4.98182">
        <ele>393.411</ele>
        <time>2012-08-28T10:03:16Z</time>
      </trkpt>
      <trkpt lat="47.29078" lon="4.98182">
        <ele>393.411</ele>
        <time>2012-08-28T10:03:27Z</time>
      </trkpt>
      <trkpt lat="47.29078" lon="4.98182">
        <ele>393.316</ele>
        <time>2012-08-28T10:03:38Z</time>
      </trkpt>
      <trkpt lat="47.29075" lon="4.9818">
        <ele>376.7</ele>
        <time>2012-08-28T10:03:49Z</time>
      </trkpt>
      <trkpt lat="47.29068" lon="4.98175">
        <ele>377.1</ele>
        <time>2012-08-28T10:04:00Z</time>
      </trkpt>
      <trkpt lat="47.29062" lon="4.9817">
        <ele>377.5</ele>
        <time>2012-08-28T10:04:11Z</time>
      </trkpt>
      <trkpt lat="47.29043" lon="4.9816">
        <ele>398.695</ele>
        <time>2012-08-28T10:04:22Z</time>
      </trkpt>
      <trkpt lat="47.29022" lon="4.98152">
        <ele>398.024</ele>
        <time>2012-08-28T10:04:33Z</time>
      </trkpt>
      <trkpt lat="47.29003" lon="4.98148">
        <ele>397.885</ele>
        <time>2012-08-28T10:04:44Z</time>
      </trkpt>
      <trkpt lat="47.28995" lon="4.98147">
        <ele>396.779</ele>
        <time>2012-08-28T10:04:55Z</time>
      </trkpt>
      <trkpt lat="47.28977" lon="4.98143">
        <ele>381</ele>
        <time>2012-08-28T10:05:06Z</time>
      </trkpt>
      <trkpt lat="47.28958" lon="4.98143">
        <ele>380.7</ele>
        <time>2012-08-28T10:05:17Z</time>
      </trkpt>
      <trkpt lat="47.28945" lon="4.98152">
        <ele>380.5</ele>
        <time>2012-08-28T10:05:28Z</time>
      </trkpt>
      <trkpt lat="47.28935" lon="4.98165">
        <ele>393.936</ele>
        <time>2012-08-28T10:05:39Z</time>
      </trkpt>
      <trkpt lat="47.28925" lon="4.98182">
        <ele>378.9</ele>
        <time>2012-08-28T10:05:50Z</time>
      </trkpt>
      <trkpt lat="47.28913" lon="4.98198">
        <ele>393.803</ele>
        <time>2012-08-28T10:06:01Z</time>
      </trkpt>
      <trkpt lat="47.28905" lon="4.98215">
        <ele>392.205</ele>
        <time>2012-08-28T10:06:12Z</time>
      </trkpt>
      <trkpt lat="47.28902" lon="4.98235">
        <ele>391.067</ele>
        <time>2012-08-28T10:06:23Z</time>
      </trkpt>
      <trkpt lat="47.289" lon="4.98253">
        <ele>376.2</ele>
        <time>2012-08-28T10:06:34Z</time>
      </trkpt>
      <trkpt lat="47.28897" lon="4.98275">
        <ele>389.885</ele>
        <time>2012-08-28T10:06:45Z</time>
      </trkpt>
      <trkpt lat="47.28892" lon="4.98295">
        <ele>374.5</ele>
        <time>2012-08-28T10:06:56Z</time>
      </trkpt>
      <trkpt lat="47.28893" lon="4.98318">
        <ele>388.15</ele>
        <time>2012-08-28T10:07:07Z</time>
      </trkpt>
      <trkpt lat="47.28897" lon="4.98335">
        <ele>375.1</ele>
        <time>2012-08-28T10:07:18Z</time>
      </trkpt>
      <trkpt lat="47.28903" lon="4.98355">
        <ele>375.3</ele>
        <time>2012-08-28T10:07:29Z</time>
      </trkpt>
      <trkpt lat="47.28907" lon="4.98373">
        <ele>375.3</ele>
        <time>2012-08-28T10:07:40Z</time>
      </trkpt>
      <trkpt lat="47.28912" lon="4.98393">
        <ele>375.3</ele>
        <time>2012-08-28T10:07:51Z</time>
      </trkpt>
      <trkpt lat="47.28915" lon="4.98415">
        <ele>374.9</ele>
        <time>2012-08-28T10:08:02Z</time>
      </trkpt>
      <trkpt lat="47.28917" lon="4.98435">
        <ele>375</ele>
        <time>2012-08-28T10:08:13Z</time>
      </trkpt>
      <trkpt lat="47.28917" lon="4.98457">
        <ele>374.6</ele>
        <time>2012-08-28T10:08:24Z</time>
      </trkpt>
      <trkpt lat="47.28917" lon="4.98478">
        <ele>382.775</ele>
        <time>2012-08-28T10:08:35Z</time>
      </trkpt>
      <trkpt lat="47.28915" lon="4.98498">
        <ele>373</ele>
        <time>2012-08-28T10:08:46Z</time>
      </trkpt>
      <trkpt lat="47.28917" lon="4.98522">
        <ele>385.53</ele>
        <time>2012-08-28T10:08:57Z</time>
      </trkpt>
      <trkpt lat="47.28922" lon="4.98535">
        <ele>385.652</ele>
        <time>2012-08-28T10:09:08Z</time>
      </trkpt>
      <trkpt lat="47.28923" lon="4.98558">
        <ele>384.681</ele>
        <time>2012-08-28T10:09:19Z</time>
      </trkpt>
      <trkpt lat="47.28918" lon="4.9858">
        <ele>381.611</ele>
        <time>2012-08-28T10:09:30Z</time>
      </trkpt>
      <trkpt lat="47.28915" lon="4.98597">
        <ele>380.239</ele>
        <time>2012-08-28T10:09:41Z</time>
      </trkpt>
      <trkpt lat="47.2891" lon="4.98615">
        <ele>379.557</ele>
        <time>2012-08-28T10:09:52Z</time>
      </trkpt>
      <trkpt lat="47.28905" lon="4.98638">
        <ele>378.363</ele>
        <time>2012-08-28T10:10:03Z</time>
      </trkpt>
      <trkpt lat="47.289" lon="4.98658">
        <ele>377.339</ele>
        <time>2012-08-28T10:10:14Z</time>
      </trkpt>
      <trkpt lat="47.28897" lon="4.98675">
        <ele>366</ele>
        <time>2012-08-28T10:10:25Z</time>
      </trkpt>
      <trkpt lat="47.28892" lon="4.98695">
        <ele>373.814</ele>
        <time>2012-08-28T10:10:36Z</time>
      </trkpt>
      <trkpt lat="47.28887" lon="4.98703">
        <ele>363.2</ele>
        <time>2012-08-28T10:10:47Z</time>
      </trkpt>
      <trkpt lat="47.28882" lon="4.9872">
        <ele>370.672</ele>
        <time>2012-08-28T10:10:58Z</time>
      </trkpt>
      <trkpt lat="47.28873" lon="4.98742">
        <ele>371.432</ele>
        <time>2012-08-28T10:11:09Z</time>
      </trkpt>
      <trkpt lat="47.2887" lon="4.98752">
        <ele>372.338</ele>
        <time>2012-08-28T10:11:20Z</time>
      </trkpt>
      <trkpt lat="47.2886" lon="4.98772">
        <ele>370.93</ele>
        <time>2012-08-28T10:11:31Z</time>
      </trkpt>
      <trkpt lat="47.28853" lon="4.9879">
        <ele>357.2</ele>
        <time>2012-08-28T10:11:42Z</time>
      </trkpt>
      <trkpt lat="47.28845" lon="4.98813">
        <ele>355.6</ele>
        <time>2012-08-28T10:11:53Z</time>
      </trkpt>
      <trkpt lat="47.2884" lon="4.98838">
        <ele>365.931</ele>
        <time>2012-08-28T10:12:04Z</time>
      </trkpt>
      <trkpt lat="47.28837" lon="4.98857">
        <ele>368.536</ele>
        <time>2012-08-28T10:12:15Z</time>
      </trkpt>
      <trkpt lat="47.2884" lon="4.9887">
        <ele>369.031</ele>
        <time>2012-08-28T10:12:26Z</time>
      </trkpt>
      <trkpt lat="47.28843" lon="4.9888">
        <ele>353.5</ele>
        <time>2012-08-28T10:12:37Z</time>
      </trkpt>
      <trkpt lat="47.28847" lon="4.98892">
        <ele>353.3</ele>
        <time>2012-08-28T10:12:48Z</time>
      </trkpt>
      <trkpt lat="47.28855" lon="4.98905">
        <ele>375.345</ele>
        <time>2012-08-28T10:12:59Z</time>
      </trkpt>
      <trkpt lat="47.28868" lon="4.98918">
        <ele>374.916</ele>
        <time>2012-08-28T10:13:10Z</time>
      </trkpt>
      <trkpt lat="47.28882" lon="4.98933">
        <ele>375.305</ele>
        <time>2012-08-28T10:13:21Z</time>
      </trkpt>
      <trkpt lat="47.28893" lon="4.98948">
        <ele>374.964</ele>
        <time>2012-08-28T10:13:32Z</time>
      </trkpt>
      <trkpt lat="47.28907" lon="4.98963">
        <ele>352.7</ele>
        <time>2012-08-28T10:13:43Z</time>
      </trkpt>
      <trkpt lat="47.28922" lon="4.98978">
        <ele>371.578</ele>
        <time>2012-08-28T10:13:54Z</time>
      </trkpt>
      <trkpt lat="47.28933" lon="4.98987">
        <ele>371.756</ele>
        <time>2012-08-28T10:14:05Z</time>
      </trkpt>
      <trkpt lat="47.2894" lon="4.98998">
        <ele>369.236</ele>
        <time>2012-08-28T10:14:16Z</time>
      </trkpt>
      <trkpt lat="47.28947" lon="4.99013">
        <ele>368.351</ele>
        <time>2012-08-28T10:14:27Z</time>
      </trkpt>
      <trkpt lat="47.28957" lon="4.99032">
        <ele>367.469</ele>
        <time>2012-08-28T10:14:38Z</time>
      </trkpt>
      <trkpt lat="47.28967" lon="4.99045">
        <ele>349.8</ele>
        <time>2012-08-28T10:14:49Z</time>
      </trkpt>
      <trkpt lat="47.28978" lon="4.99065">
        <ele>363.835</ele>
        <time>2012-08-28T10:15:00Z</time>
      </trkpt>
      <trkpt lat="47.28988" lon="4.9908">
        <ele>362.68</ele>
        <time>2012-08-28T10:15:11Z</time>
      </trkpt>
      <trkpt lat="47.29" lon="4.99095">
        <ele>361.777</ele>
        <time>2012-08-28T10:15:22Z</time>
      </trkpt>
      <trkpt lat="47.2901" lon="4.99113">
        <ele>359.807</ele>
        <time>2012-08-28T10:15:33Z</time>
      </trkpt>
      <trkpt lat="47.29022" lon="4.99128">
        <ele>357.028</ele>
        <time>2012-08-28T10:15:44Z</time>
      </trkpt>
      <trkpt lat="47.29033" lon="4.99138">
        <ele>355.456</ele>
        <time>2012-08-28T10:15:55Z</time>
      </trkpt>
      <trkpt lat="47.29043" lon="4.99155">
        <ele>345.4</ele>
        <time>2012-08-28T10:16:06Z</time>
      </trkpt>
      <trkpt lat="47.29045" lon="4.99173">
        <ele>344.4</ele>
        <time>2012-08-28T10:16:17Z</time>
      </trkpt>
      <trkpt lat="47.29047" lon="4.99195">
        <ele>351.633</ele>
        <time>2012-08-28T10:16:28Z</time>
      </trkpt>
      <trkpt lat="47.29048" lon="4.99203">
        <ele>352.095</ele>
        <time>2012-08-28T10:16:39Z</time>
      </trkpt>
      <trkpt lat="47.29048" lon="4.99225">
        <ele>352.834</ele>
        <time>2012-08-28T10:16:50Z</time>
      </trkpt>
      <trkpt lat="47.2905" lon="4.99247">
        <ele>340.2</ele>
        <time>2012-08-28T10:17:01Z</time>
      </trkpt>
      <trkpt lat="47.29052" lon="4.9927">
        <ele>351.059</ele>
        <time>2012-08-28T10:17:12Z</time>
      </trkpt>
      <trkpt lat="47.29055" lon="4.9929">
        <ele>337.1</ele>
        <time>2012-08-28T10:17:23Z</time>
      </trkpt>
      <trkpt lat="47.29055" lon="4.99308">
        <ele>335.8</ele>
        <time>2012-08-28T10:17:34Z</time>
      </trkpt>
      <trkpt lat="47.2906" lon="4.9933">
        <ele>334.3</ele>
        <time>2012-08-28T10:17:45Z</time>
      </trkpt>
      <trkpt lat="47.2906" lon="4.99343">
        <ele>333.6</ele>
        <time>2012-08-28T10:17:56Z</time>
      </trkpt>
      <trkpt lat="47.29065" lon="4.9936">
        <ele>333</ele>
        <time>2012-08-28T10:18:07Z</time>
      </trkpt>
      <trkpt lat="47.29063" lon="4.99375">
        <ele>332</ele>
        <time>2012-08-28T10:18:18Z</time>
      </trkpt>
      <trkpt lat="47.2906" lon="4.99388">
        <ele>331</ele>
        <time>2012-08-28T10:18:29Z</time>
      </trkpt>
      <trkpt lat="47.2906" lon="4.99407">
        <ele>329.7</ele>
        <time>2012-08-28T10:18:40Z</time>
      </trkpt>
      <trkpt lat="47.2906" lon="4.99423">
        <ele>328.5</ele>
        <time>2012-08-28T10:18:51Z</time>
      </trkpt>
      <trkpt lat="47.29062" lon="4.99448">
        <ele>326.9</ele>
        <time>2012-08-28T10:19:02Z</time>
      </trkpt>
      <trkpt lat="47.29068" lon="4.99477">
        <ele>344.061</ele>
        <time>2012-08-28T10:19:13Z</time>
      </trkpt>
      <trkpt lat="47.29072" lon="4.99493">
        <ele>344.802</ele>
        <time>2012-08-28T10:19:24Z</time>
      </trkpt>
      <trkpt lat="47.29082" lon="4.9951">
        <ele>344.273</ele>
        <time>2012-08-28T10:19:35Z</time>
      </trkpt>
      <trkpt lat="47.29088" lon="4.99523">
        <ele>342.838</ele>
        <time>2012-08-28T10:19:46Z</time>
      </trkpt>
      <trkpt lat="47.29092" lon="4.9953">
        <ele>342.1</ele>
        <time>2012-08-28T10:19:57Z</time>
      </trkpt>
      <trkpt lat="47.29092" lon="4.9953">
        <ele>342.1</ele>
        <time>2012-08-28T10:20:08Z</time>
      </trkpt>
      <trkpt lat="47.29093" lon="4.99532">
        <ele>341.664</ele>
        <time>2012-08-28T10:20:19Z</time>
      </trkpt>
      <trkpt lat="47.29093" lon="4.99532">
        <ele>341.664</ele>
        <time>2012-08-28T10:20:30Z</time>
      </trkpt>
      <trkpt lat="47.29093" lon="4.99532">
        <ele>320</ele>
        <time>2012-08-28T10:20:41Z</time>
      </trkpt>
      <trkpt lat="47.29093" lon="4.99532">
        <ele>340.957</ele>
        <time>2012-08-28T10:20:52Z</time>
      </trkpt>
      <trkpt lat="47.29093" lon="4.99532">
        <ele>340.957</ele>
        <time>2012-08-28T10:21:03Z</time>
      </trkpt>
      <trkpt lat="47.29093" lon="4.99532">
        <ele>340.747</ele>
        <time>2012-08-28T10:21:14Z</time>
      </trkpt>
      <trkpt lat="47.29095" lon="4.99535">
        <ele>340.327</ele>
        <time>2012-08-28T10:21:25Z</time>
      </trkpt>
      <trkpt lat="47.29102" lon="4.99548">
        <ele>340.139</ele>
        <time>2012-08-28T10:21:36Z</time>
      </trkpt>
      <trkpt lat="47.2911" lon="4.9956">
        <ele>341.619</ele>
        <time>2012-08-28T10:21:47Z</time>
      </trkpt>
      <trkpt lat="47.29118" lon="4.99568">
        <ele>343.875</ele>
        <time>2012-08-28T10:21:58Z</time>
      </trkpt>
      <trkpt lat="47.29128" lon="4.99582">
        <ele>314.6</ele>
        <time>2012-08-28T10:22:09Z</time>
      </trkpt>
      <trkpt lat="47.29138" lon="4.99595">
        <ele>313.2</ele>
        <time>2012-08-28T10:22:20Z</time>
      </trkpt>
      <trkpt lat="47.2915" lon="4.99613">
        <ele>311.3</ele>
        <time>2012-08-28T10:22:31Z</time>
      </trkpt>
      <trkpt lat="47.29158" lon="4.99632">
        <ele>328.629</ele>
        <time>2012-08-28T10:22:42Z</time>
      </trkpt>
      <trkpt lat="47.2917" lon="4.99648">
        <ele>324.24</ele>
        <time>2012-08-28T10:22:53Z</time>
      </trkpt>
      <trkpt lat="47.29183" lon="4.9966">
        <ele>304.8</ele>
        <time>2012-08-28T10:23:04Z</time>
      </trkpt>
      <trkpt lat="47.29193" lon="4.99667">
        <ele>304</ele>
        <time>2012-08-28T10:23:15Z</time>
      </trkpt>
      <trkpt lat="47.29208" lon="4.99673">
        <ele>302.3</ele>
        <time>2012-08-28T10:23:26Z</time>
      </trkpt>
      <trkpt lat="47.2922" lon="4.99677">
        <ele>301.2</ele>
        <time>2012-08-28T10:23:37Z</time>
      </trkpt>
      <trkpt lat="47.2923" lon="4.9968">
        <ele>300.5</ele>
        <time>2012-08-28T10:23:48Z</time>
      </trkpt>
      <trkpt lat="47.29235" lon="4.99683">
        <ele>300</ele>
        <time>2012-08-28T10:23:59Z</time>
      </trkpt>
      <trkpt lat="47.29247" lon="4.99687">
        <ele>298.9</ele>
        <time>2012-08-28T10:24:10Z</time>
      </trkpt>
      <trkpt lat="47.29257" lon="4.99697">
        <ele>297.9</ele>
        <time>2012-08-28T10:24:21Z</time>
      </trkpt>
      <trkpt lat="47.29262" lon="4.99707">
        <ele>297.4</ele>
        <time>2012-08-28T10:24:32Z</time>
      </trkpt>
      <trkpt lat="47.29263" lon="4.9972">
        <ele>314.347</ele>
        <time>2012-08-28T10:24:43Z</time>
      </trkpt>
      <trkpt lat="47.29262" lon="4.99733">
        <ele>319.419</ele>
        <time>2012-08-28T10:24:54Z</time>
      </trkpt>
      <trkpt lat="47.29262" lon="4.99757">
        <ele>319.25</ele>
        <time>2012-08-28T10:25:05Z</time>
      </trkpt>
      <trkpt lat="47.29258" lon="4.99772">
        <ele>292.1</ele>
        <time>2012-08-28T10:25:16Z</time>
      </trkpt>
      <trkpt lat="47.29255" lon="4.99795">
        <ele>290.7</ele>
        <time>2012-08-28T10:25:27Z</time>
      </trkpt>
      <trkpt lat="47.29255" lon="4.99818">
        <ele>320.613</ele>
        <time>2012-08-28T10:25:38Z</time>
      </trkpt>
    </trkseg>
  </trk>
</gpx>